<?xml version="1.0" encoding="UTF-8" standalone="no" ?>
<gpx xmlns="http://www.topografix.com/GPX/1/1" xmlns:xsi="http://www.w3.org/2001/XMLSchema-instance" xsi:schemaLocation="http://www.topografix.com/GPX/1/1 http://www.topografix.com/GPX/1/1/gpx.xsd" version="1.1" creator="VisuGPX - https://www.visugpx.com">
  <metadata>
    <name>Morne Larcher</name>
    <desc><![CDATA[#nuitdesrelais 
ce matin j'ai grimpé le #MorneLarcher dit la femme couchée au diamant contre les violences faites aux femmes #passezlerelais]]></desc>
  </metadata>
  <trk>
    <name><![CDATA[Tracé actuel: 25 NOV 2016 07:04]]></name>
    <trkseg>
      <trkpt lat="14.46834" lon="-61.04676">
        <ele>31.86</ele>
        <time>2016-11-25T11:26:20Z</time>
      </trkpt>
      <trkpt lat="14.46833" lon="-61.04676">
        <ele>20.81</ele>
        <time>2016-11-25T11:26:33Z</time>
      </trkpt>
      <trkpt lat="14.46833" lon="-61.04676">
        <ele>18.4</ele>
        <time>2016-11-25T11:26:54Z</time>
      </trkpt>
      <trkpt lat="14.46832" lon="-61.04682">
        <ele>16.96</ele>
        <time>2016-11-25T11:27:11Z</time>
      </trkpt>
      <trkpt lat="14.46831" lon="-61.04682">
        <ele>16.48</ele>
        <time>2016-11-25T11:27:12Z</time>
      </trkpt>
      <trkpt lat="14.46827" lon="-61.04686">
        <ele>16.96</ele>
        <time>2016-11-25T11:27:16Z</time>
      </trkpt>
      <trkpt lat="14.4682" lon="-61.04697">
        <ele>20.81</ele>
        <time>2016-11-25T11:27:28Z</time>
      </trkpt>
      <trkpt lat="14.46815" lon="-61.04706">
        <ele>22.73</ele>
        <time>2016-11-25T11:27:37Z</time>
      </trkpt>
      <trkpt lat="14.4681" lon="-61.04723">
        <ele>22.73</ele>
        <time>2016-11-25T11:27:51Z</time>
      </trkpt>
      <trkpt lat="14.46809" lon="-61.04736">
        <ele>22.25</ele>
        <time>2016-11-25T11:28:09Z</time>
      </trkpt>
      <trkpt lat="14.46809" lon="-61.04737">
        <ele>21.77</ele>
        <time>2016-11-25T11:28:23Z</time>
      </trkpt>
      <trkpt lat="14.46806" lon="-61.04745">
        <ele>23.21</ele>
        <time>2016-11-25T11:28:36Z</time>
      </trkpt>
      <trkpt lat="14.46804" lon="-61.04758">
        <ele>28.98</ele>
        <time>2016-11-25T11:28:50Z</time>
      </trkpt>
      <trkpt lat="14.46803" lon="-61.04763">
        <ele>29.94</ele>
        <time>2016-11-25T11:28:55Z</time>
      </trkpt>
      <trkpt lat="14.46804" lon="-61.04765">
        <ele>30.9</ele>
        <time>2016-11-25T11:29:00Z</time>
      </trkpt>
      <trkpt lat="14.46804" lon="-61.04771">
        <ele>30.42</ele>
        <time>2016-11-25T11:29:03Z</time>
      </trkpt>
      <trkpt lat="14.46803" lon="-61.04779">
        <ele>29.94</ele>
        <time>2016-11-25T11:29:11Z</time>
      </trkpt>
      <trkpt lat="14.46802" lon="-61.04781">
        <ele>29.94</ele>
        <time>2016-11-25T11:29:13Z</time>
      </trkpt>
      <trkpt lat="14.468" lon="-61.04795">
        <ele>32.82</ele>
        <time>2016-11-25T11:29:28Z</time>
      </trkpt>
      <trkpt lat="14.46796" lon="-61.04812">
        <ele>33.3</ele>
        <time>2016-11-25T11:29:43Z</time>
      </trkpt>
      <trkpt lat="14.4679" lon="-61.04821">
        <ele>35.71</ele>
        <time>2016-11-25T11:29:55Z</time>
      </trkpt>
      <trkpt lat="14.46776" lon="-61.04824">
        <ele>37.15</ele>
        <time>2016-11-25T11:30:08Z</time>
      </trkpt>
      <trkpt lat="14.46764" lon="-61.04832">
        <ele>40.03</ele>
        <time>2016-11-25T11:30:22Z</time>
      </trkpt>
      <trkpt lat="14.46762" lon="-61.04832">
        <ele>40.99</ele>
        <time>2016-11-25T11:30:24Z</time>
      </trkpt>
      <trkpt lat="14.46749" lon="-61.04832">
        <ele>42.92</ele>
        <time>2016-11-25T11:30:39Z</time>
      </trkpt>
      <trkpt lat="14.46746" lon="-61.04831">
        <ele>43.88</ele>
        <time>2016-11-25T11:30:46Z</time>
      </trkpt>
      <trkpt lat="14.46743" lon="-61.04832">
        <ele>44.36</ele>
        <time>2016-11-25T11:30:49Z</time>
      </trkpt>
      <trkpt lat="14.46734" lon="-61.04833">
        <ele>45.32</ele>
        <time>2016-11-25T11:31:01Z</time>
      </trkpt>
      <trkpt lat="14.46732" lon="-61.04834">
        <ele>45.32</ele>
        <time>2016-11-25T11:31:04Z</time>
      </trkpt>
      <trkpt lat="14.4672" lon="-61.04834">
        <ele>46.28</ele>
        <time>2016-11-25T11:31:15Z</time>
      </trkpt>
      <trkpt lat="14.46711" lon="-61.04835">
        <ele>47.24</ele>
        <time>2016-11-25T11:31:25Z</time>
      </trkpt>
      <trkpt lat="14.46706" lon="-61.04835">
        <ele>47.72</ele>
        <time>2016-11-25T11:31:33Z</time>
      </trkpt>
      <trkpt lat="14.46702" lon="-61.04836">
        <ele>47.72</ele>
        <time>2016-11-25T11:31:36Z</time>
      </trkpt>
      <trkpt lat="14.46693" lon="-61.04838">
        <ele>47.24</ele>
        <time>2016-11-25T11:31:46Z</time>
      </trkpt>
      <trkpt lat="14.4669" lon="-61.0484">
        <ele>48.2</ele>
        <time>2016-11-25T11:31:59Z</time>
      </trkpt>
      <trkpt lat="14.46689" lon="-61.0484">
        <ele>49.65</ele>
        <time>2016-11-25T11:32:14Z</time>
      </trkpt>
      <trkpt lat="14.46685" lon="-61.04847">
        <ele>53.01</ele>
        <time>2016-11-25T11:32:28Z</time>
      </trkpt>
      <trkpt lat="14.46684" lon="-61.04848">
        <ele>53.97</ele>
        <time>2016-11-25T11:32:42Z</time>
      </trkpt>
      <trkpt lat="14.46684" lon="-61.04848">
        <ele>55.41</ele>
        <time>2016-11-25T11:33:01Z</time>
      </trkpt>
      <trkpt lat="14.46685" lon="-61.04848">
        <ele>57.34</ele>
        <time>2016-11-25T11:33:21Z</time>
      </trkpt>
      <trkpt lat="14.46683" lon="-61.0485">
        <ele>57.34</ele>
        <time>2016-11-25T11:33:36Z</time>
      </trkpt>
      <trkpt lat="14.46685" lon="-61.0485">
        <ele>58.78</ele>
        <time>2016-11-25T11:34:00Z</time>
      </trkpt>
      <trkpt lat="14.46685" lon="-61.04848">
        <ele>61.18</ele>
        <time>2016-11-25T11:34:13Z</time>
      </trkpt>
      <trkpt lat="14.46685" lon="-61.04848">
        <ele>60.7</ele>
        <time>2016-11-25T11:34:30Z</time>
      </trkpt>
      <trkpt lat="14.46684" lon="-61.04849">
        <ele>61.66</ele>
        <time>2016-11-25T11:34:51Z</time>
      </trkpt>
      <trkpt lat="14.46684" lon="-61.04848">
        <ele>62.62</ele>
        <time>2016-11-25T11:35:07Z</time>
      </trkpt>
      <trkpt lat="14.46684" lon="-61.04848">
        <ele>63.1</ele>
        <time>2016-11-25T11:35:25Z</time>
      </trkpt>
      <trkpt lat="14.46685" lon="-61.04848">
        <ele>64.07</ele>
        <time>2016-11-25T11:35:39Z</time>
      </trkpt>
      <trkpt lat="14.46685" lon="-61.04849">
        <ele>64.07</ele>
        <time>2016-11-25T11:35:50Z</time>
      </trkpt>
      <trkpt lat="14.46684" lon="-61.04848">
        <ele>63.58</ele>
        <time>2016-11-25T11:36:04Z</time>
      </trkpt>
      <trkpt lat="14.46684" lon="-61.04848">
        <ele>63.58</ele>
        <time>2016-11-25T11:36:18Z</time>
      </trkpt>
      <trkpt lat="14.46684" lon="-61.04848">
        <ele>63.1</ele>
        <time>2016-11-25T11:36:41Z</time>
      </trkpt>
      <trkpt lat="14.46684" lon="-61.04848">
        <ele>63.58</ele>
        <time>2016-11-25T11:36:59Z</time>
      </trkpt>
      <trkpt lat="14.46684" lon="-61.04851">
        <ele>63.58</ele>
        <time>2016-11-25T11:37:19Z</time>
      </trkpt>
      <trkpt lat="14.46684" lon="-61.04853">
        <ele>63.58</ele>
        <time>2016-11-25T11:37:40Z</time>
      </trkpt>
      <trkpt lat="14.46684" lon="-61.04852">
        <ele>63.58</ele>
        <time>2016-11-25T11:38:09Z</time>
      </trkpt>
      <trkpt lat="14.46684" lon="-61.04856">
        <ele>64.55</ele>
        <time>2016-11-25T11:38:25Z</time>
      </trkpt>
      <trkpt lat="14.46683" lon="-61.04859">
        <ele>64.55</ele>
        <time>2016-11-25T11:38:47Z</time>
      </trkpt>
      <trkpt lat="14.46684" lon="-61.04865">
        <ele>65.99</ele>
        <time>2016-11-25T11:38:59Z</time>
      </trkpt>
      <trkpt lat="14.46684" lon="-61.04868">
        <ele>65.51</ele>
        <time>2016-11-25T11:39:21Z</time>
      </trkpt>
      <trkpt lat="14.46684" lon="-61.04868">
        <ele>66.47</ele>
        <time>2016-11-25T11:39:45Z</time>
      </trkpt>
      <trkpt lat="14.46683" lon="-61.0487">
        <ele>67.43</ele>
        <time>2016-11-25T11:40:07Z</time>
      </trkpt>
      <trkpt lat="14.46684" lon="-61.04873">
        <ele>68.87</ele>
        <time>2016-11-25T11:40:19Z</time>
      </trkpt>
      <trkpt lat="14.46682" lon="-61.04881">
        <ele>71.27</ele>
        <time>2016-11-25T11:40:32Z</time>
      </trkpt>
      <trkpt lat="14.4668" lon="-61.04884">
        <ele>73.2</ele>
        <time>2016-11-25T11:40:49Z</time>
      </trkpt>
      <trkpt lat="14.46676" lon="-61.04889">
        <ele>75.12</ele>
        <time>2016-11-25T11:41:04Z</time>
      </trkpt>
      <trkpt lat="14.46675" lon="-61.04894">
        <ele>76.56</ele>
        <time>2016-11-25T11:41:19Z</time>
      </trkpt>
      <trkpt lat="14.46671" lon="-61.04897">
        <ele>77.52</ele>
        <time>2016-11-25T11:41:32Z</time>
      </trkpt>
      <trkpt lat="14.46668" lon="-61.04903">
        <ele>78.48</ele>
        <time>2016-11-25T11:41:44Z</time>
      </trkpt>
      <trkpt lat="14.46666" lon="-61.04909">
        <ele>80.41</ele>
        <time>2016-11-25T11:41:55Z</time>
      </trkpt>
      <trkpt lat="14.46665" lon="-61.04911">
        <ele>81.85</ele>
        <time>2016-11-25T11:42:11Z</time>
      </trkpt>
      <trkpt lat="14.46664" lon="-61.04916">
        <ele>85.21</ele>
        <time>2016-11-25T11:42:23Z</time>
      </trkpt>
      <trkpt lat="14.46661" lon="-61.04922">
        <ele>89.54</ele>
        <time>2016-11-25T11:42:33Z</time>
      </trkpt>
      <trkpt lat="14.4666" lon="-61.04926">
        <ele>90.5</ele>
        <time>2016-11-25T11:42:42Z</time>
      </trkpt>
      <trkpt lat="14.46655" lon="-61.04933">
        <ele>91.94</ele>
        <time>2016-11-25T11:42:54Z</time>
      </trkpt>
      <trkpt lat="14.46652" lon="-61.0494">
        <ele>94.35</ele>
        <time>2016-11-25T11:43:07Z</time>
      </trkpt>
      <trkpt lat="14.4665" lon="-61.04949">
        <ele>97.71</ele>
        <time>2016-11-25T11:43:22Z</time>
      </trkpt>
      <trkpt lat="14.4665" lon="-61.04953">
        <ele>98.19</ele>
        <time>2016-11-25T11:43:33Z</time>
      </trkpt>
      <trkpt lat="14.4665" lon="-61.04958">
        <ele>100.11</ele>
        <time>2016-11-25T11:43:46Z</time>
      </trkpt>
      <trkpt lat="14.4665" lon="-61.04961">
        <ele>100.11</ele>
        <time>2016-11-25T11:44:06Z</time>
      </trkpt>
      <trkpt lat="14.4665" lon="-61.04963">
        <ele>100.11</ele>
        <time>2016-11-25T11:44:27Z</time>
      </trkpt>
      <trkpt lat="14.46651" lon="-61.04969">
        <ele>99.15</ele>
        <time>2016-11-25T11:44:40Z</time>
      </trkpt>
      <trkpt lat="14.46648" lon="-61.04974">
        <ele>98.19</ele>
        <time>2016-11-25T11:44:50Z</time>
      </trkpt>
      <trkpt lat="14.46646" lon="-61.04978">
        <ele>98.67</ele>
        <time>2016-11-25T11:45:00Z</time>
      </trkpt>
      <trkpt lat="14.46644" lon="-61.04982">
        <ele>99.63</ele>
        <time>2016-11-25T11:45:11Z</time>
      </trkpt>
      <trkpt lat="14.4664" lon="-61.0499">
        <ele>100.11</ele>
        <time>2016-11-25T11:45:23Z</time>
      </trkpt>
      <trkpt lat="14.46638" lon="-61.04997">
        <ele>102.04</ele>
        <time>2016-11-25T11:45:33Z</time>
      </trkpt>
      <trkpt lat="14.46638" lon="-61.05005">
        <ele>103.96</ele>
        <time>2016-11-25T11:45:46Z</time>
      </trkpt>
      <trkpt lat="14.46637" lon="-61.05007">
        <ele>104.44</ele>
        <time>2016-11-25T11:46:00Z</time>
      </trkpt>
      <trkpt lat="14.46636" lon="-61.05007">
        <ele>105.88</ele>
        <time>2016-11-25T11:46:30Z</time>
      </trkpt>
      <trkpt lat="14.46636" lon="-61.05008">
        <ele>107.32</ele>
        <time>2016-11-25T11:46:59Z</time>
      </trkpt>
      <trkpt lat="14.46636" lon="-61.05011">
        <ele>107.81</ele>
        <time>2016-11-25T11:47:11Z</time>
      </trkpt>
      <trkpt lat="14.46635" lon="-61.05018">
        <ele>111.17</ele>
        <time>2016-11-25T11:47:22Z</time>
      </trkpt>
      <trkpt lat="14.46636" lon="-61.05021">
        <ele>113.57</ele>
        <time>2016-11-25T11:47:33Z</time>
      </trkpt>
      <trkpt lat="14.46634" lon="-61.05027">
        <ele>113.09</ele>
        <time>2016-11-25T11:47:46Z</time>
      </trkpt>
      <trkpt lat="14.46634" lon="-61.0503">
        <ele>113.09</ele>
        <time>2016-11-25T11:47:56Z</time>
      </trkpt>
      <trkpt lat="14.46633" lon="-61.05033">
        <ele>114.05</ele>
        <time>2016-11-25T11:48:06Z</time>
      </trkpt>
      <trkpt lat="14.46633" lon="-61.05038">
        <ele>114.53</ele>
        <time>2016-11-25T11:48:20Z</time>
      </trkpt>
      <trkpt lat="14.46629" lon="-61.05044">
        <ele>117.9</ele>
        <time>2016-11-25T11:48:33Z</time>
      </trkpt>
      <trkpt lat="14.46628" lon="-61.05046">
        <ele>119.82</ele>
        <time>2016-11-25T11:48:44Z</time>
      </trkpt>
      <trkpt lat="14.46627" lon="-61.05047">
        <ele>120.3</ele>
        <time>2016-11-25T11:48:58Z</time>
      </trkpt>
      <trkpt lat="14.46623" lon="-61.05051">
        <ele>122.22</ele>
        <time>2016-11-25T11:49:10Z</time>
      </trkpt>
      <trkpt lat="14.46622" lon="-61.05057">
        <ele>125.11</ele>
        <time>2016-11-25T11:49:20Z</time>
      </trkpt>
      <trkpt lat="14.4662" lon="-61.05063">
        <ele>124.15</ele>
        <time>2016-11-25T11:49:36Z</time>
      </trkpt>
      <trkpt lat="14.46615" lon="-61.0507">
        <ele>125.59</ele>
        <time>2016-11-25T11:49:52Z</time>
      </trkpt>
      <trkpt lat="14.46614" lon="-61.05075">
        <ele>131.36</ele>
        <time>2016-11-25T11:49:59Z</time>
      </trkpt>
      <trkpt lat="14.46611" lon="-61.05078">
        <ele>133.76</ele>
        <time>2016-11-25T11:50:17Z</time>
      </trkpt>
      <trkpt lat="14.46608" lon="-61.05084">
        <ele>138.57</ele>
        <time>2016-11-25T11:50:30Z</time>
      </trkpt>
      <trkpt lat="14.46608" lon="-61.05092">
        <ele>147.22</ele>
        <time>2016-11-25T11:50:43Z</time>
      </trkpt>
      <trkpt lat="14.46608" lon="-61.05093">
        <ele>148.18</ele>
        <time>2016-11-25T11:50:55Z</time>
      </trkpt>
      <trkpt lat="14.4661" lon="-61.05096">
        <ele>148.18</ele>
        <time>2016-11-25T11:51:07Z</time>
      </trkpt>
      <trkpt lat="14.4661" lon="-61.05102">
        <ele>149.62</ele>
        <time>2016-11-25T11:51:17Z</time>
      </trkpt>
      <trkpt lat="14.46606" lon="-61.05107">
        <ele>154.43</ele>
        <time>2016-11-25T11:51:32Z</time>
      </trkpt>
      <trkpt lat="14.46603" lon="-61.05106">
        <ele>159.72</ele>
        <time>2016-11-25T11:51:58Z</time>
      </trkpt>
      <trkpt lat="14.46604" lon="-61.05104">
        <ele>162.6</ele>
        <time>2016-11-25T11:52:28Z</time>
      </trkpt>
      <trkpt lat="14.46603" lon="-61.05108">
        <ele>163.56</ele>
        <time>2016-11-25T11:52:41Z</time>
      </trkpt>
      <trkpt lat="14.46601" lon="-61.05114">
        <ele>165.96</ele>
        <time>2016-11-25T11:52:54Z</time>
      </trkpt>
      <trkpt lat="14.46602" lon="-61.05115">
        <ele>167.41</ele>
        <time>2016-11-25T11:53:10Z</time>
      </trkpt>
      <trkpt lat="14.46601" lon="-61.05115">
        <ele>169.81</ele>
        <time>2016-11-25T11:53:32Z</time>
      </trkpt>
      <trkpt lat="14.46599" lon="-61.05118">
        <ele>171.73</ele>
        <time>2016-11-25T11:53:46Z</time>
      </trkpt>
      <trkpt lat="14.46598" lon="-61.05118">
        <ele>176.06</ele>
        <time>2016-11-25T11:54:01Z</time>
      </trkpt>
      <trkpt lat="14.466" lon="-61.05117">
        <ele>178.94</ele>
        <time>2016-11-25T11:54:17Z</time>
      </trkpt>
      <trkpt lat="14.46601" lon="-61.05115">
        <ele>180.87</ele>
        <time>2016-11-25T11:54:32Z</time>
      </trkpt>
      <trkpt lat="14.46601" lon="-61.05112">
        <ele>181.35</ele>
        <time>2016-11-25T11:54:48Z</time>
      </trkpt>
      <trkpt lat="14.46603" lon="-61.05108">
        <ele>179.9</ele>
        <time>2016-11-25T11:55:00Z</time>
      </trkpt>
      <trkpt lat="14.46604" lon="-61.05106">
        <ele>179.9</ele>
        <time>2016-11-25T11:55:14Z</time>
      </trkpt>
      <trkpt lat="14.46605" lon="-61.05106">
        <ele>179.9</ele>
        <time>2016-11-25T11:55:35Z</time>
      </trkpt>
      <trkpt lat="14.46604" lon="-61.05107">
        <ele>181.35</ele>
        <time>2016-11-25T11:55:50Z</time>
      </trkpt>
      <trkpt lat="14.46603" lon="-61.05107">
        <ele>180.87</ele>
        <time>2016-11-25T11:56:11Z</time>
      </trkpt>
      <trkpt lat="14.46602" lon="-61.05108">
        <ele>180.38</ele>
        <time>2016-11-25T11:56:29Z</time>
      </trkpt>
      <trkpt lat="14.46603" lon="-61.05109">
        <ele>180.87</ele>
        <time>2016-11-25T11:56:42Z</time>
      </trkpt>
      <trkpt lat="14.46603" lon="-61.05111">
        <ele>181.35</ele>
        <time>2016-11-25T11:56:56Z</time>
      </trkpt>
      <trkpt lat="14.46603" lon="-61.05112">
        <ele>182.31</ele>
        <time>2016-11-25T11:57:09Z</time>
      </trkpt>
      <trkpt lat="14.46603" lon="-61.05113">
        <ele>183.27</ele>
        <time>2016-11-25T11:57:26Z</time>
      </trkpt>
      <trkpt lat="14.46599" lon="-61.05116">
        <ele>183.75</ele>
        <time>2016-11-25T11:57:38Z</time>
      </trkpt>
      <trkpt lat="14.46597" lon="-61.05122">
        <ele>182.79</ele>
        <time>2016-11-25T11:57:52Z</time>
      </trkpt>
      <trkpt lat="14.46597" lon="-61.05124">
        <ele>182.79</ele>
        <time>2016-11-25T11:58:07Z</time>
      </trkpt>
      <trkpt lat="14.46595" lon="-61.05127">
        <ele>180.87</ele>
        <time>2016-11-25T11:58:19Z</time>
      </trkpt>
      <trkpt lat="14.46597" lon="-61.0513">
        <ele>180.38</ele>
        <time>2016-11-25T11:58:33Z</time>
      </trkpt>
      <trkpt lat="14.46597" lon="-61.05136">
        <ele>180.87</ele>
        <time>2016-11-25T11:58:45Z</time>
      </trkpt>
      <trkpt lat="14.46597" lon="-61.05138">
        <ele>181.83</ele>
        <time>2016-11-25T11:58:55Z</time>
      </trkpt>
      <trkpt lat="14.46595" lon="-61.0514">
        <ele>182.31</ele>
        <time>2016-11-25T11:59:12Z</time>
      </trkpt>
      <trkpt lat="14.4659" lon="-61.05144">
        <ele>183.75</ele>
        <time>2016-11-25T11:59:26Z</time>
      </trkpt>
      <trkpt lat="14.46581" lon="-61.05147">
        <ele>185.19</ele>
        <time>2016-11-25T11:59:42Z</time>
      </trkpt>
      <trkpt lat="14.46579" lon="-61.05146">
        <ele>186.15</ele>
        <time>2016-11-25T11:59:55Z</time>
      </trkpt>
      <trkpt lat="14.46576" lon="-61.05146">
        <ele>186.63</ele>
        <time>2016-11-25T12:00:08Z</time>
      </trkpt>
      <trkpt lat="14.4657" lon="-61.0515">
        <ele>190.96</ele>
        <time>2016-11-25T12:00:23Z</time>
      </trkpt>
      <trkpt lat="14.46565" lon="-61.05147">
        <ele>193.84</ele>
        <time>2016-11-25T12:00:44Z</time>
      </trkpt>
      <trkpt lat="14.46564" lon="-61.05149">
        <ele>196.73</ele>
        <time>2016-11-25T12:01:00Z</time>
      </trkpt>
      <trkpt lat="14.46562" lon="-61.05149">
        <ele>199.61</ele>
        <time>2016-11-25T12:01:23Z</time>
      </trkpt>
      <trkpt lat="14.46562" lon="-61.05148">
        <ele>202.01</ele>
        <time>2016-11-25T12:01:43Z</time>
      </trkpt>
      <trkpt lat="14.4656" lon="-61.05147">
        <ele>204.9</ele>
        <time>2016-11-25T12:02:06Z</time>
      </trkpt>
      <trkpt lat="14.46558" lon="-61.05148">
        <ele>208.26</ele>
        <time>2016-11-25T12:02:16Z</time>
      </trkpt>
      <trkpt lat="14.46558" lon="-61.05149">
        <ele>209.22</ele>
        <time>2016-11-25T12:02:32Z</time>
      </trkpt>
      <trkpt lat="14.46558" lon="-61.05149">
        <ele>209.7</ele>
        <time>2016-11-25T12:02:47Z</time>
      </trkpt>
      <trkpt lat="14.46558" lon="-61.05149">
        <ele>213.07</ele>
        <time>2016-11-25T12:03:04Z</time>
      </trkpt>
      <trkpt lat="14.46557" lon="-61.0515">
        <ele>215.95</ele>
        <time>2016-11-25T12:03:18Z</time>
      </trkpt>
      <trkpt lat="14.46557" lon="-61.0515">
        <ele>216.91</ele>
        <time>2016-11-25T12:03:30Z</time>
      </trkpt>
      <trkpt lat="14.46552" lon="-61.05152">
        <ele>218.84</ele>
        <time>2016-11-25T12:03:40Z</time>
      </trkpt>
      <trkpt lat="14.46549" lon="-61.05153">
        <ele>221.24</ele>
        <time>2016-11-25T12:03:58Z</time>
      </trkpt>
      <trkpt lat="14.46548" lon="-61.05153">
        <ele>225.09</ele>
        <time>2016-11-25T12:04:11Z</time>
      </trkpt>
      <trkpt lat="14.46545" lon="-61.05153">
        <ele>227.49</ele>
        <time>2016-11-25T12:04:26Z</time>
      </trkpt>
      <trkpt lat="14.46541" lon="-61.05152">
        <ele>229.89</ele>
        <time>2016-11-25T12:04:42Z</time>
      </trkpt>
      <trkpt lat="14.4654" lon="-61.05152">
        <ele>230.85</ele>
        <time>2016-11-25T12:04:55Z</time>
      </trkpt>
      <trkpt lat="14.46538" lon="-61.05151">
        <ele>231.33</ele>
        <time>2016-11-25T12:05:09Z</time>
      </trkpt>
      <trkpt lat="14.46537" lon="-61.05151">
        <ele>231.33</ele>
        <time>2016-11-25T12:05:23Z</time>
      </trkpt>
      <trkpt lat="14.46536" lon="-61.05151">
        <ele>231.33</ele>
        <time>2016-11-25T12:05:35Z</time>
      </trkpt>
      <trkpt lat="14.46535" lon="-61.05154">
        <ele>231.81</ele>
        <time>2016-11-25T12:05:52Z</time>
      </trkpt>
      <trkpt lat="14.46534" lon="-61.05159">
        <ele>231.33</ele>
        <time>2016-11-25T12:06:12Z</time>
      </trkpt>
      <trkpt lat="14.46531" lon="-61.05165">
        <ele>231.81</ele>
        <time>2016-11-25T12:06:23Z</time>
      </trkpt>
      <trkpt lat="14.46533" lon="-61.05165">
        <ele>232.3</ele>
        <time>2016-11-25T12:06:36Z</time>
      </trkpt>
      <trkpt lat="14.46534" lon="-61.05166">
        <ele>232.78</ele>
        <time>2016-11-25T12:06:50Z</time>
      </trkpt>
      <trkpt lat="14.46514" lon="-61.05185">
        <ele>238.54</ele>
        <time>2016-11-25T12:07:04Z</time>
      </trkpt>
      <trkpt lat="14.4651" lon="-61.05189">
        <ele>241.43</ele>
        <time>2016-11-25T12:07:16Z</time>
      </trkpt>
      <trkpt lat="14.465" lon="-61.05198">
        <ele>244.31</ele>
        <time>2016-11-25T12:07:35Z</time>
      </trkpt>
      <trkpt lat="14.46494" lon="-61.05203">
        <ele>247.2</ele>
        <time>2016-11-25T12:07:46Z</time>
      </trkpt>
      <trkpt lat="14.46489" lon="-61.05208">
        <ele>250.08</ele>
        <time>2016-11-25T12:08:02Z</time>
      </trkpt>
      <trkpt lat="14.46479" lon="-61.0522">
        <ele>264.02</ele>
        <time>2016-11-25T12:08:17Z</time>
      </trkpt>
      <trkpt lat="14.46477" lon="-61.05222">
        <ele>267.86</ele>
        <time>2016-11-25T12:08:31Z</time>
      </trkpt>
      <trkpt lat="14.46478" lon="-61.05224">
        <ele>269.31</ele>
        <time>2016-11-25T12:08:48Z</time>
      </trkpt>
      <trkpt lat="14.46478" lon="-61.05228">
        <ele>270.27</ele>
        <time>2016-11-25T12:09:09Z</time>
      </trkpt>
      <trkpt lat="14.46476" lon="-61.05232">
        <ele>271.23</ele>
        <time>2016-11-25T12:09:28Z</time>
      </trkpt>
      <trkpt lat="14.46474" lon="-61.05236">
        <ele>273.15</ele>
        <time>2016-11-25T12:09:54Z</time>
      </trkpt>
      <trkpt lat="14.46473" lon="-61.05238">
        <ele>278.44</ele>
        <time>2016-11-25T12:10:24Z</time>
      </trkpt>
      <trkpt lat="14.46473" lon="-61.05241">
        <ele>279.88</ele>
        <time>2016-11-25T12:10:47Z</time>
      </trkpt>
      <trkpt lat="14.46474" lon="-61.05246">
        <ele>284.69</ele>
        <time>2016-11-25T12:11:03Z</time>
      </trkpt>
      <trkpt lat="14.46477" lon="-61.05249">
        <ele>287.57</ele>
        <time>2016-11-25T12:11:21Z</time>
      </trkpt>
      <trkpt lat="14.46475" lon="-61.05253">
        <ele>293.34</ele>
        <time>2016-11-25T12:11:36Z</time>
      </trkpt>
      <trkpt lat="14.46472" lon="-61.05259">
        <ele>298.63</ele>
        <time>2016-11-25T12:11:54Z</time>
      </trkpt>
      <trkpt lat="14.46466" lon="-61.05265">
        <ele>301.99</ele>
        <time>2016-11-25T12:12:14Z</time>
      </trkpt>
      <trkpt lat="14.4646" lon="-61.05268">
        <ele>303.43</ele>
        <time>2016-11-25T12:12:26Z</time>
      </trkpt>
      <trkpt lat="14.46453" lon="-61.05273">
        <ele>305.84</ele>
        <time>2016-11-25T12:12:42Z</time>
      </trkpt>
      <trkpt lat="14.46444" lon="-61.05278">
        <ele>312.57</ele>
        <time>2016-11-25T12:13:00Z</time>
      </trkpt>
      <trkpt lat="14.46441" lon="-61.05278">
        <ele>321.22</ele>
        <time>2016-11-25T12:13:16Z</time>
      </trkpt>
      <trkpt lat="14.4644" lon="-61.05279">
        <ele>322.18</ele>
        <time>2016-11-25T12:13:35Z</time>
      </trkpt>
      <trkpt lat="14.4644" lon="-61.05279">
        <ele>324.1</ele>
        <time>2016-11-25T12:13:59Z</time>
      </trkpt>
      <trkpt lat="14.46438" lon="-61.05281">
        <ele>327.47</ele>
        <time>2016-11-25T12:14:10Z</time>
      </trkpt>
      <trkpt lat="14.46436" lon="-61.05283">
        <ele>332.27</ele>
        <time>2016-11-25T12:14:22Z</time>
      </trkpt>
      <trkpt lat="14.46431" lon="-61.05287">
        <ele>335.16</ele>
        <time>2016-11-25T12:14:36Z</time>
      </trkpt>
      <trkpt lat="14.46427" lon="-61.05291">
        <ele>338.52</ele>
        <time>2016-11-25T12:14:51Z</time>
      </trkpt>
      <trkpt lat="14.46426" lon="-61.05294">
        <ele>342.37</ele>
        <time>2016-11-25T12:15:05Z</time>
      </trkpt>
      <trkpt lat="14.46424" lon="-61.05296">
        <ele>344.77</ele>
        <time>2016-11-25T12:15:23Z</time>
      </trkpt>
      <trkpt lat="14.46418" lon="-61.05298">
        <ele>346.21</ele>
        <time>2016-11-25T12:15:36Z</time>
      </trkpt>
      <trkpt lat="14.4641" lon="-61.05305">
        <ele>345.73</ele>
        <time>2016-11-25T12:15:52Z</time>
      </trkpt>
      <trkpt lat="14.46406" lon="-61.05307">
        <ele>349.58</ele>
        <time>2016-11-25T12:16:03Z</time>
      </trkpt>
      <trkpt lat="14.46405" lon="-61.05309">
        <ele>350.06</ele>
        <time>2016-11-25T12:16:19Z</time>
      </trkpt>
      <trkpt lat="14.46403" lon="-61.05312">
        <ele>352.46</ele>
        <time>2016-11-25T12:16:33Z</time>
      </trkpt>
      <trkpt lat="14.46401" lon="-61.05314">
        <ele>353.9</ele>
        <time>2016-11-25T12:16:51Z</time>
      </trkpt>
      <trkpt lat="14.464" lon="-61.05315">
        <ele>353.9</ele>
        <time>2016-11-25T12:17:20Z</time>
      </trkpt>
      <trkpt lat="14.464" lon="-61.05315">
        <ele>353.9</ele>
        <time>2016-11-25T12:17:39Z</time>
      </trkpt>
      <trkpt lat="14.464" lon="-61.05316">
        <ele>354.38</ele>
        <time>2016-11-25T12:18:05Z</time>
      </trkpt>
      <trkpt lat="14.46399" lon="-61.05316">
        <ele>354.86</ele>
        <time>2016-11-25T12:18:26Z</time>
      </trkpt>
      <trkpt lat="14.46398" lon="-61.05314">
        <ele>357.75</ele>
        <time>2016-11-25T12:18:51Z</time>
      </trkpt>
      <trkpt lat="14.464" lon="-61.0532">
        <ele>361.59</ele>
        <time>2016-11-25T12:19:08Z</time>
      </trkpt>
      <trkpt lat="14.464" lon="-61.0532">
        <ele>364.96</ele>
        <time>2016-11-25T12:19:20Z</time>
      </trkpt>
      <trkpt lat="14.464" lon="-61.05322">
        <ele>367.84</ele>
        <time>2016-11-25T12:19:36Z</time>
      </trkpt>
      <trkpt lat="14.464" lon="-61.05323">
        <ele>369.76</ele>
        <time>2016-11-25T12:19:42Z</time>
      </trkpt>
      <trkpt lat="14.46399" lon="-61.05328">
        <ele>373.61</ele>
        <time>2016-11-25T12:19:54Z</time>
      </trkpt>
      <trkpt lat="14.46398" lon="-61.05331">
        <ele>374.57</ele>
        <time>2016-11-25T12:20:10Z</time>
      </trkpt>
      <trkpt lat="14.46398" lon="-61.05333">
        <ele>375.05</ele>
        <time>2016-11-25T12:20:29Z</time>
      </trkpt>
      <trkpt lat="14.46396" lon="-61.05334">
        <ele>376.01</ele>
        <time>2016-11-25T12:20:41Z</time>
      </trkpt>
      <trkpt lat="14.46393" lon="-61.05338">
        <ele>376.01</ele>
        <time>2016-11-25T12:20:58Z</time>
      </trkpt>
      <trkpt lat="14.46389" lon="-61.05343">
        <ele>377.45</ele>
        <time>2016-11-25T12:21:11Z</time>
      </trkpt>
      <trkpt lat="14.46387" lon="-61.05345">
        <ele>377.45</ele>
        <time>2016-11-25T12:21:24Z</time>
      </trkpt>
      <trkpt lat="14.46383" lon="-61.05347">
        <ele>378.42</ele>
        <time>2016-11-25T12:21:41Z</time>
      </trkpt>
      <trkpt lat="14.46374" lon="-61.0535">
        <ele>379.86</ele>
        <time>2016-11-25T12:21:55Z</time>
      </trkpt>
      <trkpt lat="14.46368" lon="-61.05353">
        <ele>379.86</ele>
        <time>2016-11-25T12:22:09Z</time>
      </trkpt>
      <trkpt lat="14.46364" lon="-61.05358">
        <ele>381.3</ele>
        <time>2016-11-25T12:22:21Z</time>
      </trkpt>
      <trkpt lat="14.46361" lon="-61.05364">
        <ele>387.07</ele>
        <time>2016-11-25T12:22:34Z</time>
      </trkpt>
      <trkpt lat="14.4636" lon="-61.05364">
        <ele>387.55</ele>
        <time>2016-11-25T12:22:51Z</time>
      </trkpt>
      <trkpt lat="14.4636" lon="-61.05365">
        <ele>388.99</ele>
        <time>2016-11-25T12:23:05Z</time>
      </trkpt>
      <trkpt lat="14.46361" lon="-61.05364">
        <ele>389.95</ele>
        <time>2016-11-25T12:23:19Z</time>
      </trkpt>
      <trkpt lat="14.46359" lon="-61.05365">
        <ele>390.91</ele>
        <time>2016-11-25T12:23:33Z</time>
      </trkpt>
      <trkpt lat="14.46358" lon="-61.05365">
        <ele>392.36</ele>
        <time>2016-11-25T12:23:53Z</time>
      </trkpt>
      <trkpt lat="14.46357" lon="-61.05365">
        <ele>394.28</ele>
        <time>2016-11-25T12:24:07Z</time>
      </trkpt>
      <trkpt lat="14.46355" lon="-61.05366">
        <ele>394.76</ele>
        <time>2016-11-25T12:24:24Z</time>
      </trkpt>
      <trkpt lat="14.46351" lon="-61.05366">
        <ele>396.68</ele>
        <time>2016-11-25T12:24:34Z</time>
      </trkpt>
      <trkpt lat="14.46348" lon="-61.05364">
        <ele>398.6</ele>
        <time>2016-11-25T12:24:48Z</time>
      </trkpt>
      <trkpt lat="14.4634" lon="-61.05362">
        <ele>399.57</ele>
        <time>2016-11-25T12:25:03Z</time>
      </trkpt>
      <trkpt lat="14.46333" lon="-61.05364">
        <ele>398.6</ele>
        <time>2016-11-25T12:25:15Z</time>
      </trkpt>
      <trkpt lat="14.46327" lon="-61.05367">
        <ele>398.12</ele>
        <time>2016-11-25T12:25:22Z</time>
      </trkpt>
      <trkpt lat="14.46316" lon="-61.05366">
        <ele>398.12</ele>
        <time>2016-11-25T12:25:34Z</time>
      </trkpt>
      <trkpt lat="14.46316" lon="-61.0537">
        <ele>399.08</ele>
        <time>2016-11-25T12:25:46Z</time>
      </trkpt>
      <trkpt lat="14.46316" lon="-61.0537">
        <ele>400.05</ele>
        <time>2016-11-25T12:25:55Z</time>
      </trkpt>
      <trkpt lat="14.46315" lon="-61.0537">
        <ele>401.01</ele>
        <time>2016-11-25T12:26:03Z</time>
      </trkpt>
      <trkpt lat="14.46317" lon="-61.05375">
        <ele>409.18</ele>
        <time>2016-11-25T12:32:19Z</time>
      </trkpt>
      <trkpt lat="14.46319" lon="-61.0537">
        <ele>400.53</ele>
        <time>2016-11-25T12:32:31Z</time>
      </trkpt>
      <trkpt lat="14.46318" lon="-61.05368">
        <ele>402.45</ele>
        <time>2016-11-25T12:32:45Z</time>
      </trkpt>
      <trkpt lat="14.46316" lon="-61.05362">
        <ele>401.97</ele>
        <time>2016-11-25T12:32:55Z</time>
      </trkpt>
      <trkpt lat="14.46307" lon="-61.05358">
        <ele>396.2</ele>
        <time>2016-11-25T12:33:08Z</time>
      </trkpt>
      <trkpt lat="14.463" lon="-61.05357">
        <ele>391.39</ele>
        <time>2016-11-25T12:33:20Z</time>
      </trkpt>
      <trkpt lat="14.46295" lon="-61.05352">
        <ele>389.47</ele>
        <time>2016-11-25T12:33:35Z</time>
      </trkpt>
      <trkpt lat="14.46288" lon="-61.05346">
        <ele>388.03</ele>
        <time>2016-11-25T12:33:50Z</time>
      </trkpt>
      <trkpt lat="14.46282" lon="-61.05344">
        <ele>387.07</ele>
        <time>2016-11-25T12:34:03Z</time>
      </trkpt>
      <trkpt lat="14.46277" lon="-61.0534">
        <ele>384.66</ele>
        <time>2016-11-25T12:34:17Z</time>
      </trkpt>
      <trkpt lat="14.46276" lon="-61.05338">
        <ele>384.66</ele>
        <time>2016-11-25T12:34:22Z</time>
      </trkpt>
      <trkpt lat="14.46274" lon="-61.05331">
        <ele>383.7</ele>
        <time>2016-11-25T12:34:35Z</time>
      </trkpt>
      <trkpt lat="14.46272" lon="-61.05326">
        <ele>382.74</ele>
        <time>2016-11-25T12:34:51Z</time>
      </trkpt>
      <trkpt lat="14.46272" lon="-61.05323">
        <ele>383.22</ele>
        <time>2016-11-25T12:35:09Z</time>
      </trkpt>
      <trkpt lat="14.46272" lon="-61.05322">
        <ele>383.22</ele>
        <time>2016-11-25T12:35:32Z</time>
      </trkpt>
      <trkpt lat="14.46273" lon="-61.0532">
        <ele>383.22</ele>
        <time>2016-11-25T12:35:48Z</time>
      </trkpt>
      <trkpt lat="14.46272" lon="-61.05318">
        <ele>383.7</ele>
        <time>2016-11-25T12:36:02Z</time>
      </trkpt>
      <trkpt lat="14.46272" lon="-61.05315">
        <ele>383.7</ele>
        <time>2016-11-25T12:36:19Z</time>
      </trkpt>
      <trkpt lat="14.4627" lon="-61.05311">
        <ele>380.82</ele>
        <time>2016-11-25T12:36:34Z</time>
      </trkpt>
      <trkpt lat="14.46268" lon="-61.05308">
        <ele>379.38</ele>
        <time>2016-11-25T12:36:45Z</time>
      </trkpt>
      <trkpt lat="14.46266" lon="-61.05305">
        <ele>379.38</ele>
        <time>2016-11-25T12:36:56Z</time>
      </trkpt>
      <trkpt lat="14.46262" lon="-61.05302">
        <ele>376.97</ele>
        <time>2016-11-25T12:37:15Z</time>
      </trkpt>
      <trkpt lat="14.46261" lon="-61.05297">
        <ele>376.01</ele>
        <time>2016-11-25T12:37:23Z</time>
      </trkpt>
      <trkpt lat="14.4626" lon="-61.05295">
        <ele>376.01</ele>
        <time>2016-11-25T12:37:33Z</time>
      </trkpt>
      <trkpt lat="14.46259" lon="-61.05294">
        <ele>376.01</ele>
        <time>2016-11-25T12:37:49Z</time>
      </trkpt>
      <trkpt lat="14.46259" lon="-61.05293">
        <ele>375.53</ele>
        <time>2016-11-25T12:38:06Z</time>
      </trkpt>
      <trkpt lat="14.4626" lon="-61.05293">
        <ele>375.53</ele>
        <time>2016-11-25T12:38:28Z</time>
      </trkpt>
      <trkpt lat="14.46259" lon="-61.05291">
        <ele>371.21</ele>
        <time>2016-11-25T12:57:57Z</time>
      </trkpt>
      <trkpt lat="14.46261" lon="-61.05291">
        <ele>374.09</ele>
        <time>2016-11-25T12:58:11Z</time>
      </trkpt>
      <trkpt lat="14.4626" lon="-61.05292">
        <ele>375.05</ele>
        <time>2016-11-25T12:58:27Z</time>
      </trkpt>
      <trkpt lat="14.4626" lon="-61.05292">
        <ele>375.05</ele>
        <time>2016-11-25T12:58:45Z</time>
      </trkpt>
      <trkpt lat="14.46261" lon="-61.05293">
        <ele>374.57</ele>
        <time>2016-11-25T12:58:58Z</time>
      </trkpt>
      <trkpt lat="14.46262" lon="-61.05295">
        <ele>375.05</ele>
        <time>2016-11-25T12:59:10Z</time>
      </trkpt>
      <trkpt lat="14.46262" lon="-61.05299">
        <ele>376.01</ele>
        <time>2016-11-25T12:59:34Z</time>
      </trkpt>
      <trkpt lat="14.46262" lon="-61.05299">
        <ele>376.01</ele>
        <time>2016-11-25T12:59:35Z</time>
      </trkpt>
      <trkpt lat="14.46266" lon="-61.05301">
        <ele>376.49</ele>
        <time>2016-11-25T12:59:47Z</time>
      </trkpt>
      <trkpt lat="14.46268" lon="-61.05305">
        <ele>376.01</ele>
        <time>2016-11-25T13:00:01Z</time>
      </trkpt>
      <trkpt lat="14.46271" lon="-61.05309">
        <ele>377.94</ele>
        <time>2016-11-25T13:00:17Z</time>
      </trkpt>
      <trkpt lat="14.46273" lon="-61.05315">
        <ele>379.38</ele>
        <time>2016-11-25T13:00:32Z</time>
      </trkpt>
      <trkpt lat="14.46272" lon="-61.05322">
        <ele>382.74</ele>
        <time>2016-11-25T13:00:45Z</time>
      </trkpt>
      <trkpt lat="14.46273" lon="-61.05326">
        <ele>383.7</ele>
        <time>2016-11-25T13:00:59Z</time>
      </trkpt>
      <trkpt lat="14.46275" lon="-61.05329">
        <ele>384.66</ele>
        <time>2016-11-25T13:01:16Z</time>
      </trkpt>
      <trkpt lat="14.4628" lon="-61.05338">
        <ele>388.99</ele>
        <time>2016-11-25T13:01:33Z</time>
      </trkpt>
      <trkpt lat="14.46287" lon="-61.05345">
        <ele>392.36</ele>
        <time>2016-11-25T13:01:49Z</time>
      </trkpt>
      <trkpt lat="14.46294" lon="-61.05352">
        <ele>394.76</ele>
        <time>2016-11-25T13:02:04Z</time>
      </trkpt>
      <trkpt lat="14.46299" lon="-61.05355">
        <ele>396.68</ele>
        <time>2016-11-25T13:02:16Z</time>
      </trkpt>
      <trkpt lat="14.46308" lon="-61.05357">
        <ele>397.64</ele>
        <time>2016-11-25T13:02:29Z</time>
      </trkpt>
      <trkpt lat="14.46312" lon="-61.0536">
        <ele>399.08</ele>
        <time>2016-11-25T13:02:46Z</time>
      </trkpt>
      <trkpt lat="14.46316" lon="-61.05364">
        <ele>401.49</ele>
        <time>2016-11-25T13:03:03Z</time>
      </trkpt>
      <trkpt lat="14.46318" lon="-61.05369">
        <ele>403.41</ele>
        <time>2016-11-25T13:03:15Z</time>
      </trkpt>
      <trkpt lat="14.46318" lon="-61.05374">
        <ele>404.85</ele>
        <time>2016-11-25T13:03:24Z</time>
      </trkpt>
      <trkpt lat="14.46317" lon="-61.05376">
        <ele>405.81</ele>
        <time>2016-11-25T13:03:39Z</time>
      </trkpt>
      <trkpt lat="14.46322" lon="-61.05377">
        <ele>405.81</ele>
        <time>2016-11-25T13:04:00Z</time>
      </trkpt>
      <trkpt lat="14.46318" lon="-61.05375">
        <ele>405.81</ele>
        <time>2016-11-25T13:04:10Z</time>
      </trkpt>
      <trkpt lat="14.46315" lon="-61.05372">
        <ele>405.33</ele>
        <time>2016-11-25T13:04:27Z</time>
      </trkpt>
      <trkpt lat="14.46317" lon="-61.05372">
        <ele>405.81</ele>
        <time>2016-11-25T13:04:30Z</time>
      </trkpt>
      <trkpt lat="14.46316" lon="-61.05377">
        <ele>406.77</ele>
        <time>2016-11-25T13:04:39Z</time>
      </trkpt>
      <trkpt lat="14.46315" lon="-61.0538">
        <ele>407.26</ele>
        <time>2016-11-25T13:04:43Z</time>
      </trkpt>
      <trkpt lat="14.46312" lon="-61.05393">
        <ele>407.26</ele>
        <time>2016-11-25T13:04:57Z</time>
      </trkpt>
      <trkpt lat="14.46312" lon="-61.05407">
        <ele>406.29</ele>
        <time>2016-11-25T13:05:13Z</time>
      </trkpt>
      <trkpt lat="14.46311" lon="-61.05424">
        <ele>405.33</ele>
        <time>2016-11-25T13:05:31Z</time>
      </trkpt>
      <trkpt lat="14.46308" lon="-61.05436">
        <ele>405.33</ele>
        <time>2016-11-25T13:05:49Z</time>
      </trkpt>
      <trkpt lat="14.46307" lon="-61.05442">
        <ele>404.37</ele>
        <time>2016-11-25T13:06:05Z</time>
      </trkpt>
      <trkpt lat="14.46304" lon="-61.05458">
        <ele>402.93</ele>
        <time>2016-11-25T13:06:21Z</time>
      </trkpt>
      <trkpt lat="14.46303" lon="-61.05469">
        <ele>403.41</ele>
        <time>2016-11-25T13:06:39Z</time>
      </trkpt>
      <trkpt lat="14.46298" lon="-61.0548">
        <ele>403.41</ele>
        <time>2016-11-25T13:07:01Z</time>
      </trkpt>
      <trkpt lat="14.46295" lon="-61.05497">
        <ele>404.37</ele>
        <time>2016-11-25T13:07:17Z</time>
      </trkpt>
      <trkpt lat="14.46292" lon="-61.05514">
        <ele>405.33</ele>
        <time>2016-11-25T13:07:33Z</time>
      </trkpt>
      <trkpt lat="14.46286" lon="-61.0553">
        <ele>407.26</ele>
        <time>2016-11-25T13:07:50Z</time>
      </trkpt>
      <trkpt lat="14.46279" lon="-61.05535">
        <ele>405.81</ele>
        <time>2016-11-25T13:08:04Z</time>
      </trkpt>
      <trkpt lat="14.46277" lon="-61.05536">
        <ele>405.33</ele>
        <time>2016-11-25T13:08:34Z</time>
      </trkpt>
      <trkpt lat="14.46268" lon="-61.05547">
        <ele>405.81</ele>
        <time>2016-11-25T13:08:52Z</time>
      </trkpt>
      <trkpt lat="14.46269" lon="-61.05561">
        <ele>405.81</ele>
        <time>2016-11-25T13:09:08Z</time>
      </trkpt>
      <trkpt lat="14.46268" lon="-61.05565">
        <ele>405.33</ele>
        <time>2016-11-25T13:09:24Z</time>
      </trkpt>
      <trkpt lat="14.46266" lon="-61.05569">
        <ele>405.81</ele>
        <time>2016-11-25T13:09:40Z</time>
      </trkpt>
      <trkpt lat="14.46261" lon="-61.05579">
        <ele>404.37</ele>
        <time>2016-11-25T13:09:55Z</time>
      </trkpt>
      <trkpt lat="14.46254" lon="-61.05586">
        <ele>403.89</ele>
        <time>2016-11-25T13:10:10Z</time>
      </trkpt>
      <trkpt lat="14.46251" lon="-61.05597">
        <ele>400.53</ele>
        <time>2016-11-25T13:10:24Z</time>
      </trkpt>
      <trkpt lat="14.46243" lon="-61.05606">
        <ele>397.16</ele>
        <time>2016-11-25T13:10:36Z</time>
      </trkpt>
      <trkpt lat="14.46244" lon="-61.05613">
        <ele>398.12</ele>
        <time>2016-11-25T13:10:50Z</time>
      </trkpt>
      <trkpt lat="14.46243" lon="-61.05618">
        <ele>394.28</ele>
        <time>2016-11-25T13:11:05Z</time>
      </trkpt>
      <trkpt lat="14.46246" lon="-61.05629">
        <ele>396.68</ele>
        <time>2016-11-25T13:11:16Z</time>
      </trkpt>
      <trkpt lat="14.46254" lon="-61.05641">
        <ele>397.64</ele>
        <time>2016-11-25T13:11:29Z</time>
      </trkpt>
      <trkpt lat="14.46269" lon="-61.05652">
        <ele>396.2</ele>
        <time>2016-11-25T13:11:44Z</time>
      </trkpt>
      <trkpt lat="14.46275" lon="-61.05661">
        <ele>393.32</ele>
        <time>2016-11-25T13:12:00Z</time>
      </trkpt>
      <trkpt lat="14.46289" lon="-61.05671">
        <ele>391.39</ele>
        <time>2016-11-25T13:12:16Z</time>
      </trkpt>
      <trkpt lat="14.46303" lon="-61.05671">
        <ele>394.76</ele>
        <time>2016-11-25T13:12:31Z</time>
      </trkpt>
      <trkpt lat="14.46304" lon="-61.05668">
        <ele>395.24</ele>
        <time>2016-11-25T13:12:34Z</time>
      </trkpt>
      <trkpt lat="14.46317" lon="-61.05661">
        <ele>395.72</ele>
        <time>2016-11-25T13:12:51Z</time>
      </trkpt>
      <trkpt lat="14.46334" lon="-61.05665">
        <ele>394.28</ele>
        <time>2016-11-25T13:13:08Z</time>
      </trkpt>
      <trkpt lat="14.46333" lon="-61.05662">
        <ele>398.6</ele>
        <time>2016-11-25T13:13:21Z</time>
      </trkpt>
      <trkpt lat="14.46333" lon="-61.05658">
        <ele>401.97</ele>
        <time>2016-11-25T13:13:37Z</time>
      </trkpt>
      <trkpt lat="14.46333" lon="-61.05657">
        <ele>404.85</ele>
        <time>2016-11-25T13:13:53Z</time>
      </trkpt>
      <trkpt lat="14.46331" lon="-61.05653">
        <ele>407.26</ele>
        <time>2016-11-25T13:14:12Z</time>
      </trkpt>
      <trkpt lat="14.46329" lon="-61.05648">
        <ele>410.62</ele>
        <time>2016-11-25T13:14:27Z</time>
      </trkpt>
      <trkpt lat="14.46331" lon="-61.05646">
        <ele>412.06</ele>
        <time>2016-11-25T13:14:42Z</time>
      </trkpt>
      <trkpt lat="14.46334" lon="-61.05645">
        <ele>413.5</ele>
        <time>2016-11-25T13:14:59Z</time>
      </trkpt>
      <trkpt lat="14.46337" lon="-61.05645">
        <ele>414.47</ele>
        <time>2016-11-25T13:15:15Z</time>
      </trkpt>
      <trkpt lat="14.46339" lon="-61.05646">
        <ele>415.43</ele>
        <time>2016-11-25T13:15:32Z</time>
      </trkpt>
      <trkpt lat="14.46337" lon="-61.05646">
        <ele>415.91</ele>
        <time>2016-11-25T13:15:54Z</time>
      </trkpt>
      <trkpt lat="14.46333" lon="-61.05642">
        <ele>415.91</ele>
        <time>2016-11-25T13:16:01Z</time>
      </trkpt>
      <trkpt lat="14.46328" lon="-61.05638">
        <ele>415.91</ele>
        <time>2016-11-25T13:16:12Z</time>
      </trkpt>
      <trkpt lat="14.46334" lon="-61.05637">
        <ele>415.91</ele>
        <time>2016-11-25T13:16:16Z</time>
      </trkpt>
      <trkpt lat="14.46344" lon="-61.05647">
        <ele>415.91</ele>
        <time>2016-11-25T13:16:33Z</time>
      </trkpt>
      <trkpt lat="14.46338" lon="-61.05647">
        <ele>417.35</ele>
        <time>2016-11-25T13:16:51Z</time>
      </trkpt>
      <trkpt lat="14.46336" lon="-61.05649">
        <ele>417.35</ele>
        <time>2016-11-25T13:17:05Z</time>
      </trkpt>
      <trkpt lat="14.46331" lon="-61.05651">
        <ele>416.87</ele>
        <time>2016-11-25T13:17:27Z</time>
      </trkpt>
      <trkpt lat="14.46329" lon="-61.05649">
        <ele>416.87</ele>
        <time>2016-11-25T13:17:42Z</time>
      </trkpt>
      <trkpt lat="14.46336" lon="-61.05649">
        <ele>416.87</ele>
        <time>2016-11-25T13:18:03Z</time>
      </trkpt>
      <trkpt lat="14.46331" lon="-61.05653">
        <ele>419.27</ele>
        <time>2016-11-25T13:18:19Z</time>
      </trkpt>
      <trkpt lat="14.46331" lon="-61.05659">
        <ele>417.35</ele>
        <time>2016-11-25T13:18:40Z</time>
      </trkpt>
      <trkpt lat="14.46345" lon="-61.05668">
        <ele>413.5</ele>
        <time>2016-11-25T13:18:58Z</time>
      </trkpt>
      <trkpt lat="14.46354" lon="-61.05674">
        <ele>410.62</ele>
        <time>2016-11-25T13:19:17Z</time>
      </trkpt>
      <trkpt lat="14.46362" lon="-61.05675">
        <ele>413.5</ele>
        <time>2016-11-25T13:19:33Z</time>
      </trkpt>
      <trkpt lat="14.46373" lon="-61.05681">
        <ele>413.02</ele>
        <time>2016-11-25T13:19:48Z</time>
      </trkpt>
      <trkpt lat="14.46382" lon="-61.05682">
        <ele>411.1</ele>
        <time>2016-11-25T13:20:02Z</time>
      </trkpt>
      <trkpt lat="14.46391" lon="-61.05681">
        <ele>405.81</ele>
        <time>2016-11-25T13:20:15Z</time>
      </trkpt>
      <trkpt lat="14.464" lon="-61.05684">
        <ele>402.45</ele>
        <time>2016-11-25T13:20:28Z</time>
      </trkpt>
      <trkpt lat="14.46411" lon="-61.05687">
        <ele>401.97</ele>
        <time>2016-11-25T13:20:46Z</time>
      </trkpt>
      <trkpt lat="14.46419" lon="-61.05685">
        <ele>405.33</ele>
        <time>2016-11-25T13:21:01Z</time>
      </trkpt>
      <trkpt lat="14.46422" lon="-61.05682">
        <ele>406.29</ele>
        <time>2016-11-25T13:21:19Z</time>
      </trkpt>
      <trkpt lat="14.46423" lon="-61.05682">
        <ele>406.77</ele>
        <time>2016-11-25T13:21:47Z</time>
      </trkpt>
      <trkpt lat="14.46424" lon="-61.05683">
        <ele>407.74</ele>
        <time>2016-11-25T13:22:11Z</time>
      </trkpt>
      <trkpt lat="14.46426" lon="-61.05683">
        <ele>407.74</ele>
        <time>2016-11-25T13:22:26Z</time>
      </trkpt>
      <trkpt lat="14.46432" lon="-61.05684">
        <ele>409.66</ele>
        <time>2016-11-25T13:22:41Z</time>
      </trkpt>
      <trkpt lat="14.46437" lon="-61.05681">
        <ele>410.62</ele>
        <time>2016-11-25T13:22:53Z</time>
      </trkpt>
      <trkpt lat="14.46441" lon="-61.05681">
        <ele>410.14</ele>
        <time>2016-11-25T13:23:07Z</time>
      </trkpt>
      <trkpt lat="14.46443" lon="-61.0568">
        <ele>411.58</ele>
        <time>2016-11-25T13:23:23Z</time>
      </trkpt>
      <trkpt lat="14.46451" lon="-61.05681">
        <ele>411.58</ele>
        <time>2016-11-25T13:23:35Z</time>
      </trkpt>
      <trkpt lat="14.46458" lon="-61.05683">
        <ele>410.14</ele>
        <time>2016-11-25T13:23:50Z</time>
      </trkpt>
      <trkpt lat="14.46459" lon="-61.05686">
        <ele>406.77</ele>
        <time>2016-11-25T13:24:04Z</time>
      </trkpt>
      <trkpt lat="14.46461" lon="-61.05687">
        <ele>401.97</ele>
        <time>2016-11-25T13:24:16Z</time>
      </trkpt>
      <trkpt lat="14.4646" lon="-61.0569">
        <ele>399.57</ele>
        <time>2016-11-25T13:24:31Z</time>
      </trkpt>
      <trkpt lat="14.46462" lon="-61.05693">
        <ele>401.49</ele>
        <time>2016-11-25T13:24:55Z</time>
      </trkpt>
      <trkpt lat="14.46464" lon="-61.05696">
        <ele>398.6</ele>
        <time>2016-11-25T13:25:14Z</time>
      </trkpt>
      <trkpt lat="14.46466" lon="-61.05697">
        <ele>396.68</ele>
        <time>2016-11-25T13:25:30Z</time>
      </trkpt>
      <trkpt lat="14.46467" lon="-61.05698">
        <ele>394.76</ele>
        <time>2016-11-25T13:25:47Z</time>
      </trkpt>
      <trkpt lat="14.46469" lon="-61.05699">
        <ele>392.36</ele>
        <time>2016-11-25T13:26:01Z</time>
      </trkpt>
      <trkpt lat="14.46473" lon="-61.05705">
        <ele>390.43</ele>
        <time>2016-11-25T13:26:12Z</time>
      </trkpt>
      <trkpt lat="14.46476" lon="-61.05708">
        <ele>388.99</ele>
        <time>2016-11-25T13:26:24Z</time>
      </trkpt>
      <trkpt lat="14.46481" lon="-61.0571">
        <ele>386.59</ele>
        <time>2016-11-25T13:26:39Z</time>
      </trkpt>
      <trkpt lat="14.46482" lon="-61.0571">
        <ele>384.66</ele>
        <time>2016-11-25T13:26:54Z</time>
      </trkpt>
      <trkpt lat="14.46485" lon="-61.05712">
        <ele>382.74</ele>
        <time>2016-11-25T13:27:10Z</time>
      </trkpt>
      <trkpt lat="14.46489" lon="-61.05717">
        <ele>379.86</ele>
        <time>2016-11-25T13:27:26Z</time>
      </trkpt>
      <trkpt lat="14.4649" lon="-61.05717">
        <ele>378.9</ele>
        <time>2016-11-25T13:27:47Z</time>
      </trkpt>
      <trkpt lat="14.4649" lon="-61.05718">
        <ele>376.01</ele>
        <time>2016-11-25T13:28:21Z</time>
      </trkpt>
      <trkpt lat="14.4649" lon="-61.05719">
        <ele>375.05</ele>
        <time>2016-11-25T13:28:43Z</time>
      </trkpt>
      <trkpt lat="14.46491" lon="-61.05717">
        <ele>372.65</ele>
        <time>2016-11-25T13:28:57Z</time>
      </trkpt>
      <trkpt lat="14.46493" lon="-61.05717">
        <ele>368.8</ele>
        <time>2016-11-25T13:29:12Z</time>
      </trkpt>
      <trkpt lat="14.46495" lon="-61.05717">
        <ele>366.4</ele>
        <time>2016-11-25T13:29:22Z</time>
      </trkpt>
      <trkpt lat="14.46495" lon="-61.05719">
        <ele>361.11</ele>
        <time>2016-11-25T13:29:36Z</time>
      </trkpt>
      <trkpt lat="14.46498" lon="-61.0572">
        <ele>357.75</ele>
        <time>2016-11-25T13:29:47Z</time>
      </trkpt>
      <trkpt lat="14.46502" lon="-61.0572">
        <ele>355.34</ele>
        <time>2016-11-25T13:30:02Z</time>
      </trkpt>
      <trkpt lat="14.46509" lon="-61.05723">
        <ele>351.5</ele>
        <time>2016-11-25T13:30:11Z</time>
      </trkpt>
      <trkpt lat="14.46516" lon="-61.05722">
        <ele>349.58</ele>
        <time>2016-11-25T13:30:24Z</time>
      </trkpt>
      <trkpt lat="14.46519" lon="-61.05723">
        <ele>345.25</ele>
        <time>2016-11-25T13:30:33Z</time>
      </trkpt>
      <trkpt lat="14.46523" lon="-61.05726">
        <ele>342.37</ele>
        <time>2016-11-25T13:30:47Z</time>
      </trkpt>
      <trkpt lat="14.46528" lon="-61.05727">
        <ele>337.08</ele>
        <time>2016-11-25T13:30:57Z</time>
      </trkpt>
      <trkpt lat="14.4653" lon="-61.05728">
        <ele>334.68</ele>
        <time>2016-11-25T13:31:08Z</time>
      </trkpt>
      <trkpt lat="14.46529" lon="-61.05731">
        <ele>331.31</ele>
        <time>2016-11-25T13:31:22Z</time>
      </trkpt>
      <trkpt lat="14.46532" lon="-61.05733">
        <ele>329.39</ele>
        <time>2016-11-25T13:31:37Z</time>
      </trkpt>
      <trkpt lat="14.46536" lon="-61.05734">
        <ele>328.43</ele>
        <time>2016-11-25T13:31:51Z</time>
      </trkpt>
      <trkpt lat="14.46538" lon="-61.05736">
        <ele>323.62</ele>
        <time>2016-11-25T13:32:04Z</time>
      </trkpt>
      <trkpt lat="14.46541" lon="-61.05737">
        <ele>321.22</ele>
        <time>2016-11-25T13:32:14Z</time>
      </trkpt>
      <trkpt lat="14.46546" lon="-61.0574">
        <ele>319.3</ele>
        <time>2016-11-25T13:32:20Z</time>
      </trkpt>
      <trkpt lat="14.4655" lon="-61.05742">
        <ele>316.89</ele>
        <time>2016-11-25T13:32:32Z</time>
      </trkpt>
      <trkpt lat="14.46552" lon="-61.05742">
        <ele>315.93</ele>
        <time>2016-11-25T13:32:52Z</time>
      </trkpt>
      <trkpt lat="14.46552" lon="-61.05742">
        <ele>314.49</ele>
        <time>2016-11-25T13:33:14Z</time>
      </trkpt>
      <trkpt lat="14.46554" lon="-61.05745">
        <ele>312.57</ele>
        <time>2016-11-25T13:33:27Z</time>
      </trkpt>
      <trkpt lat="14.46556" lon="-61.05744">
        <ele>311.12</ele>
        <time>2016-11-25T13:33:40Z</time>
      </trkpt>
      <trkpt lat="14.46557" lon="-61.05744">
        <ele>308.72</ele>
        <time>2016-11-25T13:33:50Z</time>
      </trkpt>
      <trkpt lat="14.46562" lon="-61.05744">
        <ele>307.28</ele>
        <time>2016-11-25T13:34:01Z</time>
      </trkpt>
      <trkpt lat="14.46567" lon="-61.05745">
        <ele>305.84</ele>
        <time>2016-11-25T13:34:13Z</time>
      </trkpt>
      <trkpt lat="14.46569" lon="-61.0575">
        <ele>304.39</ele>
        <time>2016-11-25T13:34:25Z</time>
      </trkpt>
      <trkpt lat="14.46572" lon="-61.05756">
        <ele>300.55</ele>
        <time>2016-11-25T13:34:38Z</time>
      </trkpt>
      <trkpt lat="14.46571" lon="-61.05758">
        <ele>299.59</ele>
        <time>2016-11-25T13:34:58Z</time>
      </trkpt>
      <trkpt lat="14.46572" lon="-61.05761">
        <ele>296.22</ele>
        <time>2016-11-25T13:35:16Z</time>
      </trkpt>
      <trkpt lat="14.46574" lon="-61.05764">
        <ele>295.26</ele>
        <time>2016-11-25T13:35:30Z</time>
      </trkpt>
      <trkpt lat="14.46577" lon="-61.05766">
        <ele>295.26</ele>
        <time>2016-11-25T13:35:42Z</time>
      </trkpt>
      <trkpt lat="14.46578" lon="-61.05767">
        <ele>295.26</ele>
        <time>2016-11-25T13:36:01Z</time>
      </trkpt>
      <trkpt lat="14.46578" lon="-61.05766">
        <ele>294.78</ele>
        <time>2016-11-25T13:36:23Z</time>
      </trkpt>
      <trkpt lat="14.46578" lon="-61.05767">
        <ele>294.3</ele>
        <time>2016-11-25T13:36:51Z</time>
      </trkpt>
      <trkpt lat="14.46578" lon="-61.05767">
        <ele>293.82</ele>
        <time>2016-11-25T13:37:14Z</time>
      </trkpt>
      <trkpt lat="14.46582" lon="-61.05765">
        <ele>292.38</ele>
        <time>2016-11-25T13:37:31Z</time>
      </trkpt>
      <trkpt lat="14.46584" lon="-61.05765">
        <ele>289.49</ele>
        <time>2016-11-25T13:37:42Z</time>
      </trkpt>
      <trkpt lat="14.46587" lon="-61.05765">
        <ele>287.57</ele>
        <time>2016-11-25T13:37:56Z</time>
      </trkpt>
      <trkpt lat="14.46588" lon="-61.05769">
        <ele>284.21</ele>
        <time>2016-11-25T13:38:06Z</time>
      </trkpt>
      <trkpt lat="14.46589" lon="-61.05771">
        <ele>281.32</ele>
        <time>2016-11-25T13:38:18Z</time>
      </trkpt>
      <trkpt lat="14.4659" lon="-61.05771">
        <ele>280.84</ele>
        <time>2016-11-25T13:38:26Z</time>
      </trkpt>
      <trkpt lat="14.46592" lon="-61.05772">
        <ele>280.84</ele>
        <time>2016-11-25T13:38:37Z</time>
      </trkpt>
      <trkpt lat="14.46593" lon="-61.05774">
        <ele>280.36</ele>
        <time>2016-11-25T13:38:49Z</time>
      </trkpt>
      <trkpt lat="14.46596" lon="-61.0578">
        <ele>278.92</ele>
        <time>2016-11-25T13:39:03Z</time>
      </trkpt>
      <trkpt lat="14.46597" lon="-61.05781">
        <ele>278.44</ele>
        <time>2016-11-25T13:39:17Z</time>
      </trkpt>
      <trkpt lat="14.466" lon="-61.05784">
        <ele>278.44</ele>
        <time>2016-11-25T13:39:31Z</time>
      </trkpt>
      <trkpt lat="14.46602" lon="-61.05787">
        <ele>278.44</ele>
        <time>2016-11-25T13:39:47Z</time>
      </trkpt>
      <trkpt lat="14.46604" lon="-61.0579">
        <ele>278.44</ele>
        <time>2016-11-25T13:40:00Z</time>
      </trkpt>
      <trkpt lat="14.46605" lon="-61.05792">
        <ele>278.44</ele>
        <time>2016-11-25T13:40:07Z</time>
      </trkpt>
      <trkpt lat="14.46608" lon="-61.05796">
        <ele>277.96</ele>
        <time>2016-11-25T13:40:18Z</time>
      </trkpt>
      <trkpt lat="14.46614" lon="-61.05799">
        <ele>276.52</ele>
        <time>2016-11-25T13:40:32Z</time>
      </trkpt>
      <trkpt lat="14.46617" lon="-61.05801">
        <ele>275.56</ele>
        <time>2016-11-25T13:40:45Z</time>
      </trkpt>
      <trkpt lat="14.46621" lon="-61.05805">
        <ele>272.67</ele>
        <time>2016-11-25T13:40:57Z</time>
      </trkpt>
      <trkpt lat="14.46625" lon="-61.05808">
        <ele>268.83</ele>
        <time>2016-11-25T13:41:09Z</time>
      </trkpt>
      <trkpt lat="14.46628" lon="-61.05812">
        <ele>263.54</ele>
        <time>2016-11-25T13:41:19Z</time>
      </trkpt>
      <trkpt lat="14.46629" lon="-61.05813">
        <ele>260.17</ele>
        <time>2016-11-25T13:41:29Z</time>
      </trkpt>
      <trkpt lat="14.46632" lon="-61.05814">
        <ele>257.29</ele>
        <time>2016-11-25T13:41:39Z</time>
      </trkpt>
      <trkpt lat="14.46632" lon="-61.05814">
        <ele>255.85</ele>
        <time>2016-11-25T13:41:53Z</time>
      </trkpt>
      <trkpt lat="14.46632" lon="-61.05814">
        <ele>255.85</ele>
        <time>2016-11-25T13:42:13Z</time>
      </trkpt>
      <trkpt lat="14.46634" lon="-61.05816">
        <ele>255.37</ele>
        <time>2016-11-25T13:42:41Z</time>
      </trkpt>
      <trkpt lat="14.46634" lon="-61.05819">
        <ele>249.12</ele>
        <time>2016-11-25T13:43:14Z</time>
      </trkpt>
      <trkpt lat="14.46634" lon="-61.05819">
        <ele>249.6</ele>
        <time>2016-11-25T13:43:33Z</time>
      </trkpt>
      <trkpt lat="14.46634" lon="-61.05818">
        <ele>249.12</ele>
        <time>2016-11-25T13:43:47Z</time>
      </trkpt>
      <trkpt lat="14.46634" lon="-61.05819">
        <ele>249.12</ele>
        <time>2016-11-25T13:44:05Z</time>
      </trkpt>
      <trkpt lat="14.46634" lon="-61.0582">
        <ele>246.23</ele>
        <time>2016-11-25T13:44:22Z</time>
      </trkpt>
      <trkpt lat="14.46634" lon="-61.0582">
        <ele>245.27</ele>
        <time>2016-11-25T13:44:43Z</time>
      </trkpt>
      <trkpt lat="14.46635" lon="-61.05822">
        <ele>244.31</ele>
        <time>2016-11-25T13:44:57Z</time>
      </trkpt>
      <trkpt lat="14.46638" lon="-61.05823">
        <ele>241.91</ele>
        <time>2016-11-25T13:45:08Z</time>
      </trkpt>
      <trkpt lat="14.46639" lon="-61.05825">
        <ele>239.99</ele>
        <time>2016-11-25T13:45:21Z</time>
      </trkpt>
      <trkpt lat="14.46644" lon="-61.05828">
        <ele>238.54</ele>
        <time>2016-11-25T13:45:31Z</time>
      </trkpt>
      <trkpt lat="14.46647" lon="-61.0583">
        <ele>237.58</ele>
        <time>2016-11-25T13:45:43Z</time>
      </trkpt>
      <trkpt lat="14.46648" lon="-61.05832">
        <ele>236.14</ele>
        <time>2016-11-25T13:45:55Z</time>
      </trkpt>
      <trkpt lat="14.46649" lon="-61.05836">
        <ele>235.18</ele>
        <time>2016-11-25T13:46:02Z</time>
      </trkpt>
      <trkpt lat="14.46649" lon="-61.05844">
        <ele>232.3</ele>
        <time>2016-11-25T13:46:16Z</time>
      </trkpt>
      <trkpt lat="14.46648" lon="-61.05845">
        <ele>231.33</ele>
        <time>2016-11-25T13:46:28Z</time>
      </trkpt>
      <trkpt lat="14.4665" lon="-61.05848">
        <ele>230.37</ele>
        <time>2016-11-25T13:46:38Z</time>
      </trkpt>
      <trkpt lat="14.46652" lon="-61.05853">
        <ele>228.45</ele>
        <time>2016-11-25T13:46:49Z</time>
      </trkpt>
      <trkpt lat="14.46653" lon="-61.05857">
        <ele>226.53</ele>
        <time>2016-11-25T13:47:02Z</time>
      </trkpt>
      <trkpt lat="14.46652" lon="-61.05862">
        <ele>223.16</ele>
        <time>2016-11-25T13:47:15Z</time>
      </trkpt>
      <trkpt lat="14.4665" lon="-61.05864">
        <ele>221.24</ele>
        <time>2016-11-25T13:47:26Z</time>
      </trkpt>
      <trkpt lat="14.4665" lon="-61.05867">
        <ele>219.32</ele>
        <time>2016-11-25T13:47:37Z</time>
      </trkpt>
      <trkpt lat="14.4665" lon="-61.05873">
        <ele>215.95</ele>
        <time>2016-11-25T13:47:47Z</time>
      </trkpt>
      <trkpt lat="14.46651" lon="-61.05875">
        <ele>213.55</ele>
        <time>2016-11-25T13:48:02Z</time>
      </trkpt>
      <trkpt lat="14.46653" lon="-61.05883">
        <ele>209.7</ele>
        <time>2016-11-25T13:48:13Z</time>
      </trkpt>
      <trkpt lat="14.46655" lon="-61.05894">
        <ele>206.34</ele>
        <time>2016-11-25T13:48:27Z</time>
      </trkpt>
      <trkpt lat="14.46659" lon="-61.05896">
        <ele>203.94</ele>
        <time>2016-11-25T13:48:38Z</time>
      </trkpt>
      <trkpt lat="14.46665" lon="-61.05897">
        <ele>203.46</ele>
        <time>2016-11-25T13:48:47Z</time>
      </trkpt>
      <trkpt lat="14.46672" lon="-61.05895">
        <ele>203.94</ele>
        <time>2016-11-25T13:49:01Z</time>
      </trkpt>
      <trkpt lat="14.46673" lon="-61.05895">
        <ele>204.42</ele>
        <time>2016-11-25T13:49:17Z</time>
      </trkpt>
      <trkpt lat="14.46674" lon="-61.05897">
        <ele>204.42</ele>
        <time>2016-11-25T13:49:36Z</time>
      </trkpt>
      <trkpt lat="14.46676" lon="-61.059">
        <ele>203.46</ele>
        <time>2016-11-25T13:49:47Z</time>
      </trkpt>
      <trkpt lat="14.46681" lon="-61.05906">
        <ele>202.98</ele>
        <time>2016-11-25T13:49:58Z</time>
      </trkpt>
      <trkpt lat="14.46683" lon="-61.05908">
        <ele>202.98</ele>
        <time>2016-11-25T13:50:04Z</time>
      </trkpt>
      <trkpt lat="14.46685" lon="-61.05912">
        <ele>201.53</ele>
        <time>2016-11-25T13:50:11Z</time>
      </trkpt>
      <trkpt lat="14.4669" lon="-61.05916">
        <ele>201.05</ele>
        <time>2016-11-25T13:50:22Z</time>
      </trkpt>
      <trkpt lat="14.46694" lon="-61.0592">
        <ele>200.57</ele>
        <time>2016-11-25T13:50:35Z</time>
      </trkpt>
      <trkpt lat="14.46697" lon="-61.05922">
        <ele>199.61</ele>
        <time>2016-11-25T13:50:40Z</time>
      </trkpt>
      <trkpt lat="14.467" lon="-61.05926">
        <ele>197.69</ele>
        <time>2016-11-25T13:50:51Z</time>
      </trkpt>
      <trkpt lat="14.46701" lon="-61.05926">
        <ele>198.65</ele>
        <time>2016-11-25T13:51:11Z</time>
      </trkpt>
      <trkpt lat="14.46701" lon="-61.05927">
        <ele>198.65</ele>
        <time>2016-11-25T13:51:29Z</time>
      </trkpt>
      <trkpt lat="14.46702" lon="-61.05929">
        <ele>199.13</ele>
        <time>2016-11-25T13:51:35Z</time>
      </trkpt>
      <trkpt lat="14.46705" lon="-61.0593">
        <ele>198.65</ele>
        <time>2016-11-25T13:51:38Z</time>
      </trkpt>
      <trkpt lat="14.46706" lon="-61.05932">
        <ele>198.65</ele>
        <time>2016-11-25T13:51:40Z</time>
      </trkpt>
      <trkpt lat="14.4671" lon="-61.05939">
        <ele>199.13</ele>
        <time>2016-11-25T13:51:51Z</time>
      </trkpt>
      <trkpt lat="14.46714" lon="-61.05943">
        <ele>196.73</ele>
        <time>2016-11-25T13:52:02Z</time>
      </trkpt>
      <trkpt lat="14.46716" lon="-61.05947">
        <ele>194.8</ele>
        <time>2016-11-25T13:52:10Z</time>
      </trkpt>
      <trkpt lat="14.46718" lon="-61.05947">
        <ele>195.28</ele>
        <time>2016-11-25T13:52:29Z</time>
      </trkpt>
      <trkpt lat="14.4672" lon="-61.05953">
        <ele>194.32</ele>
        <time>2016-11-25T13:52:40Z</time>
      </trkpt>
      <trkpt lat="14.46722" lon="-61.05954">
        <ele>192.4</ele>
        <time>2016-11-25T13:52:49Z</time>
      </trkpt>
      <trkpt lat="14.46726" lon="-61.05957">
        <ele>189.52</ele>
        <time>2016-11-25T13:53:01Z</time>
      </trkpt>
      <trkpt lat="14.46726" lon="-61.05957">
        <ele>190.96</ele>
        <time>2016-11-25T13:53:21Z</time>
      </trkpt>
      <trkpt lat="14.46729" lon="-61.0596">
        <ele>190.96</ele>
        <time>2016-11-25T13:53:35Z</time>
      </trkpt>
      <trkpt lat="14.46731" lon="-61.05962">
        <ele>190</ele>
        <time>2016-11-25T13:53:39Z</time>
      </trkpt>
      <trkpt lat="14.46737" lon="-61.05969">
        <ele>185.67</ele>
        <time>2016-11-25T13:53:54Z</time>
      </trkpt>
      <trkpt lat="14.46741" lon="-61.05973">
        <ele>184.71</ele>
        <time>2016-11-25T13:54:05Z</time>
      </trkpt>
      <trkpt lat="14.46742" lon="-61.05973">
        <ele>186.63</ele>
        <time>2016-11-25T13:54:21Z</time>
      </trkpt>
      <trkpt lat="14.46742" lon="-61.05975">
        <ele>186.15</ele>
        <time>2016-11-25T13:54:37Z</time>
      </trkpt>
      <trkpt lat="14.46744" lon="-61.05978">
        <ele>184.71</ele>
        <time>2016-11-25T13:54:47Z</time>
      </trkpt>
      <trkpt lat="14.46747" lon="-61.0598">
        <ele>184.71</ele>
        <time>2016-11-25T13:54:55Z</time>
      </trkpt>
      <trkpt lat="14.46755" lon="-61.05989">
        <ele>183.27</ele>
        <time>2016-11-25T13:55:06Z</time>
      </trkpt>
      <trkpt lat="14.46757" lon="-61.05992">
        <ele>182.79</ele>
        <time>2016-11-25T13:55:10Z</time>
      </trkpt>
      <trkpt lat="14.46768" lon="-61.06004">
        <ele>178.94</ele>
        <time>2016-11-25T13:55:24Z</time>
      </trkpt>
      <trkpt lat="14.46774" lon="-61.06007">
        <ele>177.02</ele>
        <time>2016-11-25T13:55:40Z</time>
      </trkpt>
      <trkpt lat="14.46775" lon="-61.06008">
        <ele>177.02</ele>
        <time>2016-11-25T13:55:41Z</time>
      </trkpt>
      <trkpt lat="14.46781" lon="-61.06013">
        <ele>177.5</ele>
        <time>2016-11-25T13:55:51Z</time>
      </trkpt>
      <trkpt lat="14.46791" lon="-61.06019">
        <ele>175.58</ele>
        <time>2016-11-25T13:56:01Z</time>
      </trkpt>
      <trkpt lat="14.46793" lon="-61.06021">
        <ele>176.06</ele>
        <time>2016-11-25T13:56:04Z</time>
      </trkpt>
      <trkpt lat="14.46802" lon="-61.06027">
        <ele>174.14</ele>
        <time>2016-11-25T13:56:13Z</time>
      </trkpt>
      <trkpt lat="14.46809" lon="-61.06032">
        <ele>174.14</ele>
        <time>2016-11-25T13:56:21Z</time>
      </trkpt>
      <trkpt lat="14.46813" lon="-61.06035">
        <ele>173.66</ele>
        <time>2016-11-25T13:56:31Z</time>
      </trkpt>
      <trkpt lat="14.46813" lon="-61.06035">
        <ele>173.17</ele>
        <time>2016-11-25T13:56:37Z</time>
      </trkpt>
      <trkpt lat="14.46822" lon="-61.06041">
        <ele>170.77</ele>
        <time>2016-11-25T13:56:47Z</time>
      </trkpt>
      <trkpt lat="14.46828" lon="-61.06046">
        <ele>171.25</ele>
        <time>2016-11-25T13:56:58Z</time>
      </trkpt>
      <trkpt lat="14.46833" lon="-61.06049">
        <ele>171.73</ele>
        <time>2016-11-25T13:57:11Z</time>
      </trkpt>
      <trkpt lat="14.46835" lon="-61.0605">
        <ele>173.66</ele>
        <time>2016-11-25T13:57:29Z</time>
      </trkpt>
      <trkpt lat="14.46836" lon="-61.06049">
        <ele>172.69</ele>
        <time>2016-11-25T13:57:54Z</time>
      </trkpt>
      <trkpt lat="14.4684" lon="-61.06053">
        <ele>172.21</ele>
        <time>2016-11-25T13:58:10Z</time>
      </trkpt>
      <trkpt lat="14.46842" lon="-61.06054">
        <ele>171.73</ele>
        <time>2016-11-25T13:58:12Z</time>
      </trkpt>
      <trkpt lat="14.46846" lon="-61.06057">
        <ele>172.21</ele>
        <time>2016-11-25T13:58:17Z</time>
      </trkpt>
      <trkpt lat="14.46859" lon="-61.06066">
        <ele>170.29</ele>
        <time>2016-11-25T13:58:29Z</time>
      </trkpt>
      <trkpt lat="14.46875" lon="-61.06076">
        <ele>169.81</ele>
        <time>2016-11-25T13:58:43Z</time>
      </trkpt>
      <trkpt lat="14.46884" lon="-61.06083">
        <ele>170.29</ele>
        <time>2016-11-25T13:58:52Z</time>
      </trkpt>
      <trkpt lat="14.46894" lon="-61.0609">
        <ele>169.81</ele>
        <time>2016-11-25T13:59:01Z</time>
      </trkpt>
      <trkpt lat="14.46904" lon="-61.06099">
        <ele>170.77</ele>
        <time>2016-11-25T13:59:12Z</time>
      </trkpt>
      <trkpt lat="14.46905" lon="-61.06107">
        <ele>170.29</ele>
        <time>2016-11-25T13:59:23Z</time>
      </trkpt>
      <trkpt lat="14.46906" lon="-61.06111">
        <ele>170.29</ele>
        <time>2016-11-25T13:59:27Z</time>
      </trkpt>
      <trkpt lat="14.46903" lon="-61.06114">
        <ele>170.29</ele>
        <time>2016-11-25T13:59:33Z</time>
      </trkpt>
      <trkpt lat="14.46904" lon="-61.06111">
        <ele>170.29</ele>
        <time>2016-11-25T13:59:36Z</time>
      </trkpt>
      <trkpt lat="14.46904" lon="-61.06104">
        <ele>170.77</ele>
        <time>2016-11-25T13:59:42Z</time>
      </trkpt>
      <trkpt lat="14.46903" lon="-61.06097">
        <ele>172.69</ele>
        <time>2016-11-25T13:59:55Z</time>
      </trkpt>
      <trkpt lat="14.46904" lon="-61.06097">
        <ele>173.17</ele>
        <time>2016-11-25T14:00:27Z</time>
      </trkpt>
      <trkpt lat="14.46905" lon="-61.06099">
        <ele>173.66</ele>
        <time>2016-11-25T14:00:34Z</time>
      </trkpt>
      <trkpt lat="14.46901" lon="-61.06111">
        <ele>173.66</ele>
        <time>2016-11-25T14:00:47Z</time>
      </trkpt>
      <trkpt lat="14.46898" lon="-61.06117">
        <ele>172.69</ele>
        <time>2016-11-25T14:00:59Z</time>
      </trkpt>
      <trkpt lat="14.4689" lon="-61.06121">
        <ele>172.21</ele>
        <time>2016-11-25T14:01:11Z</time>
      </trkpt>
      <trkpt lat="14.46885" lon="-61.06127">
        <ele>170.77</ele>
        <time>2016-11-25T14:01:22Z</time>
      </trkpt>
      <trkpt lat="14.46879" lon="-61.06128">
        <ele>169.81</ele>
        <time>2016-11-25T14:01:28Z</time>
      </trkpt>
      <trkpt lat="14.46878" lon="-61.06132">
        <ele>168.37</ele>
        <time>2016-11-25T14:01:35Z</time>
      </trkpt>
      <trkpt lat="14.46883" lon="-61.06127">
        <ele>168.85</ele>
        <time>2016-11-25T14:01:45Z</time>
      </trkpt>
      <trkpt lat="14.46868" lon="-61.06144">
        <ele>162.6</ele>
        <time>2016-11-25T14:03:11Z</time>
      </trkpt>
      <trkpt lat="14.46866" lon="-61.06154">
        <ele>165.48</ele>
        <time>2016-11-25T14:03:20Z</time>
      </trkpt>
      <trkpt lat="14.4686" lon="-61.06165">
        <ele>165.96</ele>
        <time>2016-11-25T14:03:27Z</time>
      </trkpt>
      <trkpt lat="14.46856" lon="-61.06179">
        <ele>165.48</ele>
        <time>2016-11-25T14:03:36Z</time>
      </trkpt>
      <trkpt lat="14.46849" lon="-61.06181">
        <ele>163.56</ele>
        <time>2016-11-25T14:03:41Z</time>
      </trkpt>
      <trkpt lat="14.46849" lon="-61.06184">
        <ele>162.6</ele>
        <time>2016-11-25T14:03:43Z</time>
      </trkpt>
      <trkpt lat="14.46843" lon="-61.0619">
        <ele>157.79</ele>
        <time>2016-11-25T14:03:52Z</time>
      </trkpt>
      <trkpt lat="14.4684" lon="-61.06194">
        <ele>154.43</ele>
        <time>2016-11-25T14:03:57Z</time>
      </trkpt>
      <trkpt lat="14.46824" lon="-61.06193">
        <ele>151.06</ele>
        <time>2016-11-25T14:04:05Z</time>
      </trkpt>
      <trkpt lat="14.46817" lon="-61.06192">
        <ele>149.62</ele>
        <time>2016-11-25T14:04:12Z</time>
      </trkpt>
      <trkpt lat="14.46812" lon="-61.06189">
        <ele>148.66</ele>
        <time>2016-11-25T14:04:17Z</time>
      </trkpt>
      <trkpt lat="14.46797" lon="-61.06176">
        <ele>147.7</ele>
        <time>2016-11-25T14:04:34Z</time>
      </trkpt>
      <trkpt lat="14.46785" lon="-61.06167">
        <ele>145.3</ele>
        <time>2016-11-25T14:04:43Z</time>
      </trkpt>
      <trkpt lat="14.46771" lon="-61.06173">
        <ele>142.41</ele>
        <time>2016-11-25T14:04:52Z</time>
      </trkpt>
      <trkpt lat="14.46766" lon="-61.06174">
        <ele>142.41</ele>
        <time>2016-11-25T14:04:55Z</time>
      </trkpt>
      <trkpt lat="14.46753" lon="-61.06176">
        <ele>142.89</ele>
        <time>2016-11-25T14:05:06Z</time>
      </trkpt>
      <trkpt lat="14.46749" lon="-61.06176">
        <ele>142.89</ele>
        <time>2016-11-25T14:05:09Z</time>
      </trkpt>
      <trkpt lat="14.4674" lon="-61.06178">
        <ele>142.89</ele>
        <time>2016-11-25T14:05:20Z</time>
      </trkpt>
      <trkpt lat="14.4674" lon="-61.06179">
        <ele>142.89</ele>
        <time>2016-11-25T14:05:22Z</time>
      </trkpt>
      <trkpt lat="14.46741" lon="-61.06185">
        <ele>142.89</ele>
        <time>2016-11-25T14:05:26Z</time>
      </trkpt>
      <trkpt lat="14.46741" lon="-61.06188">
        <ele>142.41</ele>
        <time>2016-11-25T14:05:28Z</time>
      </trkpt>
      <trkpt lat="14.46739" lon="-61.06194">
        <ele>140.01</ele>
        <time>2016-11-25T14:05:33Z</time>
      </trkpt>
      <trkpt lat="14.46742" lon="-61.06196">
        <ele>138.09</ele>
        <time>2016-11-25T14:05:37Z</time>
      </trkpt>
      <trkpt lat="14.46747" lon="-61.06205">
        <ele>133.28</ele>
        <time>2016-11-25T14:05:50Z</time>
      </trkpt>
      <trkpt lat="14.4675" lon="-61.06212">
        <ele>129.43</ele>
        <time>2016-11-25T14:06:03Z</time>
      </trkpt>
      <trkpt lat="14.46752" lon="-61.06219">
        <ele>125.11</ele>
        <time>2016-11-25T14:06:16Z</time>
      </trkpt>
      <trkpt lat="14.46754" lon="-61.06221">
        <ele>124.63</ele>
        <time>2016-11-25T14:06:19Z</time>
      </trkpt>
      <trkpt lat="14.46756" lon="-61.06229">
        <ele>120.3</ele>
        <time>2016-11-25T14:06:32Z</time>
      </trkpt>
      <trkpt lat="14.46756" lon="-61.06231">
        <ele>119.82</ele>
        <time>2016-11-25T14:06:43Z</time>
      </trkpt>
      <trkpt lat="14.46755" lon="-61.06239">
        <ele>117.9</ele>
        <time>2016-11-25T14:06:49Z</time>
      </trkpt>
      <trkpt lat="14.46757" lon="-61.06241">
        <ele>117.42</ele>
        <time>2016-11-25T14:06:53Z</time>
      </trkpt>
      <trkpt lat="14.46756" lon="-61.06246">
        <ele>115.5</ele>
        <time>2016-11-25T14:06:58Z</time>
      </trkpt>
      <trkpt lat="14.4676" lon="-61.0625">
        <ele>113.57</ele>
        <time>2016-11-25T14:07:03Z</time>
      </trkpt>
      <trkpt lat="14.46757" lon="-61.06252">
        <ele>112.61</ele>
        <time>2016-11-25T14:07:06Z</time>
      </trkpt>
      <trkpt lat="14.46761" lon="-61.06264">
        <ele>108.29</ele>
        <time>2016-11-25T14:07:17Z</time>
      </trkpt>
      <trkpt lat="14.46762" lon="-61.06265">
        <ele>107.32</ele>
        <time>2016-11-25T14:07:19Z</time>
      </trkpt>
      <trkpt lat="14.4677" lon="-61.06285">
        <ele>103</ele>
        <time>2016-11-25T14:07:33Z</time>
      </trkpt>
      <trkpt lat="14.46775" lon="-61.0629">
        <ele>101.56</ele>
        <time>2016-11-25T14:07:38Z</time>
      </trkpt>
      <trkpt lat="14.46778" lon="-61.06292">
        <ele>101.08</ele>
        <time>2016-11-25T14:07:40Z</time>
      </trkpt>
      <trkpt lat="14.46793" lon="-61.063">
        <ele>97.71</ele>
        <time>2016-11-25T14:07:53Z</time>
      </trkpt>
      <trkpt lat="14.4681" lon="-61.06302">
        <ele>98.67</ele>
        <time>2016-11-25T14:08:06Z</time>
      </trkpt>
      <trkpt lat="14.46824" lon="-61.06309">
        <ele>101.56</ele>
        <time>2016-11-25T14:08:17Z</time>
      </trkpt>
      <trkpt lat="14.46832" lon="-61.06309">
        <ele>99.63</ele>
        <time>2016-11-25T14:08:24Z</time>
      </trkpt>
      <trkpt lat="14.4684" lon="-61.0632">
        <ele>96.75</ele>
        <time>2016-11-25T14:08:36Z</time>
      </trkpt>
      <trkpt lat="14.46844" lon="-61.06325">
        <ele>94.83</ele>
        <time>2016-11-25T14:08:43Z</time>
      </trkpt>
      <trkpt lat="14.46843" lon="-61.06329">
        <ele>93.39</ele>
        <time>2016-11-25T14:08:53Z</time>
      </trkpt>
      <trkpt lat="14.46846" lon="-61.06331">
        <ele>92.9</ele>
        <time>2016-11-25T14:09:03Z</time>
      </trkpt>
      <trkpt lat="14.46847" lon="-61.06336">
        <ele>92.42</ele>
        <time>2016-11-25T14:09:07Z</time>
      </trkpt>
      <trkpt lat="14.46847" lon="-61.06345">
        <ele>90.98</ele>
        <time>2016-11-25T14:09:13Z</time>
      </trkpt>
      <trkpt lat="14.46846" lon="-61.06356">
        <ele>90.02</ele>
        <time>2016-11-25T14:09:21Z</time>
      </trkpt>
      <trkpt lat="14.46842" lon="-61.06361">
        <ele>86.18</ele>
        <time>2016-11-25T14:09:28Z</time>
      </trkpt>
      <trkpt lat="14.46841" lon="-61.06366">
        <ele>83.77</ele>
        <time>2016-11-25T14:09:32Z</time>
      </trkpt>
      <trkpt lat="14.46835" lon="-61.06369">
        <ele>82.81</ele>
        <time>2016-11-25T14:09:37Z</time>
      </trkpt>
      <trkpt lat="14.46835" lon="-61.06374">
        <ele>81.85</ele>
        <time>2016-11-25T14:09:41Z</time>
      </trkpt>
      <trkpt lat="14.4683" lon="-61.0638">
        <ele>78.97</ele>
        <time>2016-11-25T14:09:51Z</time>
      </trkpt>
      <trkpt lat="14.46829" lon="-61.06381">
        <ele>78.48</ele>
        <time>2016-11-25T14:09:52Z</time>
      </trkpt>
      <trkpt lat="14.46827" lon="-61.06389">
        <ele>77.04</ele>
        <time>2016-11-25T14:10:03Z</time>
      </trkpt>
      <trkpt lat="14.46826" lon="-61.0639">
        <ele>76.56</ele>
        <time>2016-11-25T14:10:04Z</time>
      </trkpt>
      <trkpt lat="14.4683" lon="-61.064">
        <ele>77.52</ele>
        <time>2016-11-25T14:10:13Z</time>
      </trkpt>
      <trkpt lat="14.46829" lon="-61.06404">
        <ele>77.52</ele>
        <time>2016-11-25T14:10:19Z</time>
      </trkpt>
      <trkpt lat="14.46828" lon="-61.06407">
        <ele>77.04</ele>
        <time>2016-11-25T14:10:22Z</time>
      </trkpt>
      <trkpt lat="14.46828" lon="-61.06413">
        <ele>74.64</ele>
        <time>2016-11-25T14:10:29Z</time>
      </trkpt>
      <trkpt lat="14.46829" lon="-61.06416">
        <ele>74.16</ele>
        <time>2016-11-25T14:10:32Z</time>
      </trkpt>
      <trkpt lat="14.46828" lon="-61.06423">
        <ele>73.68</ele>
        <time>2016-11-25T14:10:39Z</time>
      </trkpt>
      <trkpt lat="14.46831" lon="-61.06427">
        <ele>72.72</ele>
        <time>2016-11-25T14:10:43Z</time>
      </trkpt>
      <trkpt lat="14.46833" lon="-61.0644">
        <ele>71.27</ele>
        <time>2016-11-25T14:10:57Z</time>
      </trkpt>
      <trkpt lat="14.46833" lon="-61.0644">
        <ele>71.27</ele>
        <time>2016-11-25T14:10:58Z</time>
      </trkpt>
      <trkpt lat="14.46831" lon="-61.06444">
        <ele>70.31</ele>
        <time>2016-11-25T14:11:01Z</time>
      </trkpt>
      <trkpt lat="14.4683" lon="-61.06457">
        <ele>67.43</ele>
        <time>2016-11-25T14:11:12Z</time>
      </trkpt>
      <trkpt lat="14.46829" lon="-61.06461">
        <ele>66.95</ele>
        <time>2016-11-25T14:11:16Z</time>
      </trkpt>
      <trkpt lat="14.46825" lon="-61.06472">
        <ele>65.51</ele>
        <time>2016-11-25T14:11:29Z</time>
      </trkpt>
      <trkpt lat="14.46827" lon="-61.06476">
        <ele>65.51</ele>
        <time>2016-11-25T14:11:34Z</time>
      </trkpt>
      <trkpt lat="14.46822" lon="-61.06477">
        <ele>65.03</ele>
        <time>2016-11-25T14:11:39Z</time>
      </trkpt>
      <trkpt lat="14.46819" lon="-61.06487">
        <ele>64.55</ele>
        <time>2016-11-25T14:11:50Z</time>
      </trkpt>
      <trkpt lat="14.46819" lon="-61.06493">
        <ele>64.07</ele>
        <time>2016-11-25T14:11:55Z</time>
      </trkpt>
      <trkpt lat="14.46816" lon="-61.06504">
        <ele>61.66</ele>
        <time>2016-11-25T14:12:05Z</time>
      </trkpt>
      <trkpt lat="14.46815" lon="-61.06505">
        <ele>60.7</ele>
        <time>2016-11-25T14:12:07Z</time>
      </trkpt>
      <trkpt lat="14.46813" lon="-61.06513">
        <ele>57.34</ele>
        <time>2016-11-25T14:12:15Z</time>
      </trkpt>
      <trkpt lat="14.46816" lon="-61.06517">
        <ele>56.37</ele>
        <time>2016-11-25T14:12:24Z</time>
      </trkpt>
      <trkpt lat="14.46808" lon="-61.06527">
        <ele>53.49</ele>
        <time>2016-11-25T14:12:36Z</time>
      </trkpt>
      <trkpt lat="14.46808" lon="-61.06534">
        <ele>52.05</ele>
        <time>2016-11-25T14:12:43Z</time>
      </trkpt>
      <trkpt lat="14.46805" lon="-61.06541">
        <ele>48.68</ele>
        <time>2016-11-25T14:12:50Z</time>
      </trkpt>
      <trkpt lat="14.46803" lon="-61.06549">
        <ele>47.72</ele>
        <time>2016-11-25T14:12:56Z</time>
      </trkpt>
      <trkpt lat="14.46801" lon="-61.06555">
        <ele>47.24</ele>
        <time>2016-11-25T14:13:01Z</time>
      </trkpt>
      <trkpt lat="14.46798" lon="-61.06559">
        <ele>44.84</ele>
        <time>2016-11-25T14:13:11Z</time>
      </trkpt>
      <trkpt lat="14.46796" lon="-61.06556">
        <ele>44.84</ele>
        <time>2016-11-25T14:13:21Z</time>
      </trkpt>
      <trkpt lat="14.46797" lon="-61.06556">
        <ele>45.32</ele>
        <time>2016-11-25T14:13:40Z</time>
      </trkpt>
      <trkpt lat="14.46799" lon="-61.06561">
        <ele>45.32</ele>
        <time>2016-11-25T14:13:45Z</time>
      </trkpt>
      <trkpt lat="14.46796" lon="-61.06564">
        <ele>45.32</ele>
        <time>2016-11-25T14:13:49Z</time>
      </trkpt>
      <trkpt lat="14.46794" lon="-61.06572">
        <ele>45.32</ele>
        <time>2016-11-25T14:13:58Z</time>
      </trkpt>
      <trkpt lat="14.46794" lon="-61.06588">
        <ele>43.4</ele>
        <time>2016-11-25T14:14:11Z</time>
      </trkpt>
      <trkpt lat="14.46792" lon="-61.06598">
        <ele>40.99</ele>
        <time>2016-11-25T14:14:19Z</time>
      </trkpt>
      <trkpt lat="14.46785" lon="-61.06614">
        <ele>39.07</ele>
        <time>2016-11-25T14:14:33Z</time>
      </trkpt>
      <trkpt lat="14.46776" lon="-61.06626">
        <ele>37.63</ele>
        <time>2016-11-25T14:14:43Z</time>
      </trkpt>
      <trkpt lat="14.46774" lon="-61.06631">
        <ele>36.19</ele>
        <time>2016-11-25T14:14:47Z</time>
      </trkpt>
      <trkpt lat="14.4677" lon="-61.06647">
        <ele>35.71</ele>
        <time>2016-11-25T14:14:59Z</time>
      </trkpt>
      <trkpt lat="14.4676" lon="-61.06663">
        <ele>39.07</ele>
        <time>2016-11-25T14:15:13Z</time>
      </trkpt>
      <trkpt lat="14.46757" lon="-61.06667">
        <ele>40.03</ele>
        <time>2016-11-25T14:15:18Z</time>
      </trkpt>
      <trkpt lat="14.46756" lon="-61.06672">
        <ele>40.03</ele>
        <time>2016-11-25T14:15:22Z</time>
      </trkpt>
      <trkpt lat="14.46754" lon="-61.0668">
        <ele>36.67</ele>
        <time>2016-11-25T14:15:29Z</time>
      </trkpt>
      <trkpt lat="14.46757" lon="-61.06687">
        <ele>34.26</ele>
        <time>2016-11-25T14:15:36Z</time>
      </trkpt>
      <trkpt lat="14.46756" lon="-61.06694">
        <ele>31.86</ele>
        <time>2016-11-25T14:15:45Z</time>
      </trkpt>
      <trkpt lat="14.46752" lon="-61.06704">
        <ele>29.46</ele>
        <time>2016-11-25T14:15:54Z</time>
      </trkpt>
      <trkpt lat="14.46752" lon="-61.06717">
        <ele>25.61</ele>
        <time>2016-11-25T14:16:07Z</time>
      </trkpt>
      <trkpt lat="14.46747" lon="-61.06733">
        <ele>20.32</ele>
        <time>2016-11-25T14:16:22Z</time>
      </trkpt>
      <trkpt lat="14.46747" lon="-61.06738">
        <ele>19.36</ele>
        <time>2016-11-25T14:16:26Z</time>
      </trkpt>
      <trkpt lat="14.46746" lon="-61.06741">
        <ele>18.4</ele>
        <time>2016-11-25T14:16:28Z</time>
      </trkpt>
      <trkpt lat="14.46742" lon="-61.06749">
        <ele>18.4</ele>
        <time>2016-11-25T14:16:35Z</time>
      </trkpt>
      <trkpt lat="14.46735" lon="-61.06766">
        <ele>16.96</ele>
        <time>2016-11-25T14:16:51Z</time>
      </trkpt>
      <trkpt lat="14.46728" lon="-61.06786">
        <ele>15.04</ele>
        <time>2016-11-25T14:17:08Z</time>
      </trkpt>
      <trkpt lat="14.46725" lon="-61.06792">
        <ele>14.56</ele>
        <time>2016-11-25T14:17:13Z</time>
      </trkpt>
      <trkpt lat="14.46718" lon="-61.068">
        <ele>16</ele>
        <time>2016-11-25T14:17:23Z</time>
      </trkpt>
      <trkpt lat="14.46716" lon="-61.06802">
        <ele>16.48</ele>
        <time>2016-11-25T14:17:25Z</time>
      </trkpt>
      <trkpt lat="14.46714" lon="-61.06806">
        <ele>17.92</ele>
        <time>2016-11-25T14:17:28Z</time>
      </trkpt>
      <trkpt lat="14.46703" lon="-61.06822">
        <ele>18.4</ele>
        <time>2016-11-25T14:17:45Z</time>
      </trkpt>
      <trkpt lat="14.467" lon="-61.06826">
        <ele>17.92</ele>
        <time>2016-11-25T14:17:50Z</time>
      </trkpt>
    </trkseg>
  </trk>
</gpx>